Wetterdaten: Mittwoch, 26.02.2014
Datum Zeit Temp. Aussen +5cm Feuchte Auss Luftdruck Regen Sonnenschein Regendauer UV Solar Windben
26.02.2014 00:00 7,8 C 6,1 C 91 % 1009,9 hPa 0,0 l/m 0 min 2 min 0,0 UV-I 0 W/m 5,1 km/h (1 Bft)
26.02.2014 00:02 7,8 C 5,6 C 91 % 1009,9 hPa 0,0 l/m 0 min 0 min 0,0 UV-I 0 W/m 7,7 km/h (2 Bft)
26.02.2014 00:06 7,7 C 5,6 C 92 % 1009,8 hPa 0,0 l/m 0 min 0 min 0,0 UV-I 0 W/m 5,1 km/h (1 Bft)
26.02.2014 00:08 7,7 C 5,6 C 92 % 1010,0 hPa 0,0 l/m 0 min 0 min 0,0 UV-I 0 W/m 0,0 km/h (0 Bft)
26.02.2014 00:10 7,7 C 5,6 C 92 % 1009,9 hPa 0,0 l/m 0 min 0 min 0,0 UV-I 0 W/m 0,0 km/h (0 Bft)
26.02.2014 00:12 7,6 C 5,6 C 92 % 1010,0 hPa 0,0 l/m 0 min 0 min 0,0 UV-I 0 W/m 0,0 km/h (0 Bft)
26.02.2014 00:14 7,6 C 5,6 C 92 % 1010,0 hPa 0,0 l/m 0 min 0 min 0,0 UV-I 0 W/m 0,0 km/h (0 Bft)
26.02.2014 00:16 7,6 C 5,6 C 92 % 1010,0 hPa 0,0 l/m 0 min 0 min 0,0 UV-I 0 W/m 0,0 km/h (0 Bft)
26.02.2014 00:18 7,6 C 5,6 C 92 % 1009,9 hPa 0,0 l/m 0 min 0 min 0,0 UV-I 0 W/m 0,0 km/h (0 Bft)
26.02.2014 00:20 7,6 C 5,6 C 92 % 1009,9 hPa 0,0 l/m 0 min 0 min 0,0 UV-I 0 W/m 0,0 km/h (0 Bft)
26.02.2014 00:22 7,6 C 5,6 C 92 % 1009,9 hPa 0,0 l/m 0 min 0 min 0,0 UV-I 0 W/m 0,0 km/h (0 Bft)
26.02.2014 00:24 7,6 C 5,6 C 92 % 1010,0 hPa 0,0 l/m 0 min 0 min 0,0 UV-I 0 W/m 0,0 km/h (0 Bft)
26.02.2014 00:26 7,6 C 5,6 C 92 % 1010,1 hPa 0,0 l/m 0 min 0 min 0,0 UV-I 0 W/m 0,0 km/h (0 Bft)
26.02.2014 00:28 7,6 C 5,6 C 92 % 1010,1 hPa 0,0 l/m 0 min 0 min 0,0 UV-I 0 W/m 0,0 km/h (0 Bft)
26.02.2014 00:30 7,6 C 5,6 C 93 % 1010,2 hPa 0,0 l/m 0 min 0 min 0,0 UV-I 0 W/m 0,0 km/h (0 Bft)
26.02.2014 00:32 7,6 C 5,6 C 92 % 1010,2 hPa 0,0 l/m 0 min 0 min 0,0 UV-I 0 W/m 0,0 km/h (0 Bft)
26.02.2014 00:34 7,6 C 5,6 C 92 % 1010,2 hPa 0,0 l/m 0 min 0 min 0,0 UV-I 0 W/m 0,0 km/h (0 Bft)
26.02.2014 00:36 7,6 C 5,6 C 92 % 1010,2 hPa 0,0 l/m 0 min 0 min 0,0 UV-I 0 W/m 0,0 km/h (0 Bft)
26.02.2014 00:38 7,6 C 5,6 C 92 % 1010,2 hPa 0,0 l/m 0 min 0 min 0,0 UV-I 0 W/m 7,7 km/h (2 Bft)
26.02.2014 00:40 7,7 C 5,6 C 92 % 1010,2 hPa 0,0 l/m 0 min 0 min 0,0 UV-I 0 W/m 5,1 km/h (1 Bft)
26.02.2014 00:42 7,7 C 5,6 C 92 % 1010,2 hPa 0,0 l/m 0 min 0 min 0,0 UV-I 0 W/m 5,1 km/h (1 Bft)
26.02.2014 00:44 7,7 C 5,6 C 92 % 1010,2 hPa 0,0 l/m 0 min 0 min 0,0 UV-I 0 W/m 7,7 km/h (2 Bft)
26.02.2014 00:46 7,8 C 5,6 C 92 % 1010,2 hPa 0,0 l/m 0 min 0 min 0,0 UV-I 0 W/m 2,6 km/h (1 Bft)
26.02.2014 00:48 7,8 C 5,6 C 92 % 1010,3 hPa 0,0 l/m 0 min 0 min 0,0 UV-I 0 W/m 2,6 km/h (1 Bft)
26.02.2014 00:50 7,8 C 6,1 C 92 % 1010,3 hPa 0,0 l/m 0 min 0 min 0,0 UV-I 0 W/m 0,0 km/h (0 Bft)
26.02.2014 00:52 7,9 C 6,1 C 92 % 1010,2 hPa 0,0 l/m 0 min 0 min 0,0 UV-I 0 W/m 0,0 km/h (0 Bft)
26.02.2014 00:54 7,9 C 6,1 C 91 % 1010,3 hPa 0,0 l/m 0 min 0 min 0,0 UV-I 0 W/m 0,0 km/h (0 Bft)
26.02.2014 00:56 7,9 C 5,6 C 91 % 1010,3 hPa 0,0 l/m 0 min 0 min 0,0 UV-I 0 W/m 0,0 km/h (0 Bft)
26.02.2014 00:58 7,9 C 5,6 C 91 % 1010,3 hPa 0,0 l/m 0 min 0 min 0,0 UV-I 0 W/m 2,6 km/h (1 Bft)
26.02.2014 01:00 7,9 C 6,1 C 91 % 1010,4 hPa 0,0 l/m 0 min 2 min 0,0 UV-I 0 W/m 12,9 km/h (3 Bft)
26.02.2014 01:02 8,0 C 6,1 C 91 % 1010,4 hPa 0,0 l/m 0 min 0 min 0,0 UV-I 0 W/m 7,7 km/h (2 Bft)
26.02.2014 01:04 8,0 C 6,1 C 91 % 1010,4 hPa 0,0 l/m 0 min 0 min 0,0 UV-I 0 W/m 5,1 km/h (1 Bft)
26.02.2014 01:06 8,1 C 6,1 C 90 % 1010,4 hPa 0,0 l/m 0 min 0 min 0,0 UV-I 0 W/m 2,6 km/h (1 Bft)
26.02.2014 01:08 8,1 C 6,1 C 90 % 1010,4 hPa 0,0 l/m 0 min 0 min 0,0 UV-I 0 W/m 0,0 km/h (0 Bft)
26.02.2014 01:10 8,1 C 6,1 C 90 % 1010,4 hPa 0,0 l/m 0 min 0 min 0,0 UV-I 0 W/m 12,9 km/h (3 Bft)
26.02.2014 01:12 8,1 C 6,1 C 90 % 1010,4 hPa 0,0 l/m 0 min 0 min 0,0 UV-I 0 W/m 5,1 km/h (1 Bft)
26.02.2014 01:14 8,1 C 6,1 C 90 % 1010,4 hPa 0,0 l/m 0 min 2 min 0,0 UV-I 0 W/m 5,1 km/h (1 Bft)
26.02.2014 01:16 8,1 C 6,1 C 90 % 1010,4 hPa 0,0 l/m 0 min 2 min 0,0 UV-I 0 W/m 10,3 km/h (2 Bft)
26.02.2014 01:18 8,1 C 6,1 C 90 % 1010,4 hPa 0,0 l/m 0 min 0 min 0,0 UV-I 0 W/m 10,3 km/h (2 Bft)
26.02.2014 01:20 8,1 C 6,1 C 90 % 1010,4 hPa 0,0 l/m 0 min 0 min 0,0 UV-I 0 W/m 10,3 km/h (2 Bft)
26.02.2014 01:22 8,1 C 6,1 C 90 % 1010,4 hPa 0,0 l/m 0 min 2 min 0,0 UV-I 0 W/m 0,0 km/h (0 Bft)
26.02.2014 01:24 8,1 C 6,1 C 90 % 1010,4 hPa 0,0 l/m 0 min 2 min 0,0 UV-I 0 W/m 0,0 km/h (0 Bft)
26.02.2014 01:26 8,1 C 6,1 C 90 % 1010,4 hPa 0,0 l/m 0 min 0 min 0,0 UV-I 0 W/m 0,0 km/h (0 Bft)
26.02.2014 01:28 8,1 C 6,1 C 90 % 1010,4 hPa 0,0 l/m 0 min 0 min 0,0 UV-I 0 W/m 0,0 km/h (0 Bft)
26.02.2014 01:30 8,1 C 6,1 C 90 % 1010,4 hPa 0,0 l/m 0 min 0 min 0,0 UV-I 0 W/m 0,0 km/h (0 Bft)
26.02.2014 01:32 8,1 C 6,1 C 90 % 1010,4 hPa 0,0 l/m 0 min 0 min 0,0 UV-I 0 W/m 2,6 km/h (1 Bft)
26.02.2014 01:34 8,1 C 6,1 C 90 % 1010,4 hPa 0,0 l/m 0 min 0 min 0,0 UV-I 0 W/m 10,3 km/h (2 Bft)
26.02.2014 01:36 8,0 C 6,1 C 90 % 1010,4 hPa 0,0 l/m 0 min 2 min 0,0 UV-I 0 W/m 2,6 km/h (1 Bft)
26.02.2014 01:38 8,1 C 6,1 C 90 % 1010,4 hPa 0,0 l/m 0 min 0 min 0,0 UV-I 0 W/m 5,1 km/h (1 Bft)
26.02.2014 01:40 8,0 C 6,1 C 90 % 1010,5 hPa 0,0 l/m 0 min 0 min 0,0 UV-I 0 W/m 0,0 km/h (0 Bft)
26.02.2014 01:42 8,0 C 6,1 C 90 % 1010,5 hPa 0,0 l/m 0 min 2 min 0,0 UV-I 0 W/m 2,6 km/h (1 Bft)
26.02.2014 01:44 8,0 C 6,1 C 90 % 1010,5 hPa 0,0 l/m 0 min 2 min 0,0 UV-I 0 W/m 0,0 km/h (0 Bft)
26.02.2014 01:46 8,0 C 6,1 C 90 % 1010,5 hPa 0,0 l/m 0 min 2 min 0,0 UV-I 0 W/m 0,0 km/h (0 Bft)
26.02.2014 01:48 8,0 C 6,1 C 90 % 1010,5 hPa 0,0 l/m 0 min 0 min 0,0 UV-I 0 W/m 0,0 km/h (0 Bft)
26.02.2014 01:50 8,1 C 6,1 C 90 % 1010,5 hPa 0,0 l/m 0 min 0 min 0,0 UV-I 0 W/m 0,0 km/h (0 Bft)
26.02.2014 01:52 8,0 C 6,1 C 90 % 1010,5 hPa 0,0 l/m 0 min 0 min 0,0 UV-I 0 W/m 0,0 km/h (0 Bft)
26.02.2014 01:54 8,0 C 6,1 C 90 % 1010,6 hPa 0,0 l/m 0 min 0 min 0,0 UV-I 0 W/m 2,6 km/h (1 Bft)
26.02.2014 01:56 8,1 C 6,1 C 90 % 1010,6 hPa 0,0 l/m 0 min 0 min 0,0 UV-I 0 W/m 7,7 km/h (2 Bft)
26.02.2014 01:58 8,1 C 6,1 C 90 % 1010,6 hPa 0,0 l/m 0 min 0 min 0,0 UV-I 0 W/m 0,0 km/h (0 Bft)
26.02.2014 02:00 8,1 C 6,1 C 90 % 1010,6 hPa 0,0 l/m 0 min 0 min 0,0 UV-I 0 W/m 2,6 km/h (1 Bft)
26.02.2014 02:02 8,1 C 6,1 C 90 % 1010,7 hPa 0,0 l/m 0 min 0 min 0,0 UV-I 0 W/m 0,0 km/h (0 Bft)
26.02.2014 02:04 8,1 C 6,1 C 90 % 1010,7 hPa 0,0 l/m 0 min 0 min 0,0 UV-I 0 W/m 0,0 km/h (0 Bft)
26.02.2014 02:06 8,1 C 6,1 C 90 % 1010,7 hPa 0,0 l/m 0 min 0 min 0,0 UV-I 0 W/m 0,0 km/h (0 Bft)
26.02.2014 02:08 8,1 C 5,6 C 90 % 1010,6 hPa 0,0 l/m 0 min 0 min 0,0 UV-I 0 W/m 0,0 km/h (0 Bft)
26.02.2014 02:10 8,1 C 5,6 C 90 % 1010,6 hPa 0,0 l/m 0 min 0 min 0,0 UV-I 0 W/m 0,0 km/h (0 Bft)
26.02.2014 02:12 8,1 C 5,6 C 90 % 1010,6 hPa 0,0 l/m 0 min 0 min 0,0 UV-I 0 W/m 0,0 km/h (0 Bft)
26.02.2014 02:14 8,1 C 5,6 C 90 % 1010,5 hPa 0,0 l/m 0 min 0 min 0,0 UV-I 0 W/m 0,0 km/h (0 Bft)
26.02.2014 02:16 8,0 C 5,6 C 90 % 1010,5 hPa 0,0 l/m 0 min 0 min 0,0 UV-I 0 W/m 0,0 km/h (0 Bft)
26.02.2014 02:18 7,9 C 5,6 C 90 % 1010,5 hPa 0,0 l/m 0 min 0 min 0,0 UV-I 0 W/m 0,0 km/h (0 Bft)
26.02.2014 02:20 7,9 C 5,6 C 90 % 1010,5 hPa 0,0 l/m 0 min 0 min 0,0 UV-I 0 W/m 0,0 km/h (0 Bft)
26.02.2014 02:22 7,8 C 5,6 C 90 % 1010,6 hPa 0,0 l/m 0 min 0 min 0,0 UV-I 0 W/m 0,0 km/h (0 Bft)
26.02.2014 02:24 7,8 C 5,6 C 90 % 1010,6 hPa 0,0 l/m 0 min 0 min 0,0 UV-I 0 W/m 0,0 km/h (0 Bft)
26.02.2014 02:26 7,8 C 5,6 C 90 % 1010,6 hPa 0,0 l/m 0 min 0 min 0,0 UV-I 0 W/m 0,0 km/h (0 Bft)
26.02.2014 02:28 7,8 C 5,6 C 91 % 1010,6 hPa 0,0 l/m 0 min 0 min 0,0 UV-I 0 W/m 2,6 km/h (1 Bft)
26.02.2014 02:30 7,8 C 5,6 C 91 % 1010,6 hPa 0,0 l/m 0 min 0 min 0,0 UV-I 0 W/m 0,0 km/h (0 Bft)
26.02.2014 02:32 7,8 C 5,6 C 91 % 1010,6 hPa 0,0 l/m 0 min 0 min 0,0 UV-I 0 W/m 0,0 km/h (0 Bft)
26.02.2014 02:34 7,8 C 5,6 C 91 % 1010,6 hPa 0,0 l/m 0 min 0 min 0,0 UV-I 0 W/m 0,0 km/h (0 Bft)
26.02.2014 02:36 7,8 C 5,6 C 91 % 1010,6 hPa 0,0 l/m 0 min 0 min 0,0 UV-I 0 W/m 0,0 km/h (0 Bft)
26.02.2014 02:38 7,8 C 5,6 C 91 % 1010,7 hPa 0,0 l/m 0 min 0 min 0,0 UV-I 0 W/m 0,0 km/h (0 Bft)
26.02.2014 02:40 7,8 C 5,6 C 91 % 1010,7 hPa 0,0 l/m 0 min 0 min 0,0 UV-I 0 W/m 0,0 km/h (0 Bft)
26.02.2014 02:42 7,8 C 5,6 C 91 % 1010,8 hPa 0,0 l/m 0 min 0 min 0,0 UV-I 0 W/m 0,0 km/h (0 Bft)
26.02.2014 02:44 7,8 C 5,6 C 91 % 1010,8 hPa 0,0 l/m 0 min 0 min 0,0 UV-I 0 W/m 0,0 km/h (0 Bft)
26.02.2014 02:46 7,8 C 5,6 C 91 % 1010,8 hPa 0,0 l/m 0 min 0 min 0,0 UV-I 0 W/m 0,0 km/h (0 Bft)
26.02.2014 02:48 7,9 C 5,6 C 91 % 1010,8 hPa 0,0 l/m 0 min 0 min 0,0 UV-I 0 W/m 0,0 km/h (0 Bft)
26.02.2014 02:50 7,9 C 5,6 C 91 % 1010,8 hPa 0,0 l/m 0 min 0 min 0,0 UV-I 0 W/m 0,0 km/h (0 Bft)
26.02.2014 02:52 7,9 C 5,6 C 91 % 1010,9 hPa 0,0 l/m 0 min 0 min 0,0 UV-I 0 W/m 0,0 km/h (0 Bft)
26.02.2014 02:54 8,0 C 5,6 C 91 % 1010,9 hPa 0,0 l/m 0 min 2 min 0,0 UV-I 0 W/m 0,0 km/h (0 Bft)
26.02.2014 02:56 8,0 C 5,6 C 91 % 1010,9 hPa 0,0 l/m 0 min 2 min 0,0 UV-I 0 W/m 0,0 km/h (0 Bft)
26.02.2014 02:58 7,9 C 5,6 C 91 % 1010,8 hPa 0,0 l/m 0 min 2 min 0,0 UV-I 0 W/m 0,0 km/h (0 Bft)
26.02.2014 03:00 7,9 C 5,6 C 91 % 1010,9 hPa 0,0 l/m 0 min 2 min 0,0 UV-I 0 W/m 0,0 km/h (0 Bft)
26.02.2014 03:02 7,9 C 5,6 C 91 % 1010,9 hPa 0,0 l/m 0 min 2 min 0,0 UV-I 0 W/m 0,0 km/h (0 Bft)
26.02.2014 03:04 7,8 C 5,6 C 91 % 1010,9 hPa 0,0 l/m 0 min 2 min 0,0 UV-I 0 W/m 0,0 km/h (0 Bft)
26.02.2014 03:06 7,8 C 5,6 C 91 % 1011,0 hPa 0,2 l/m 0 min 2 min 0,0 UV-I 0 W/m 0,0 km/h (0 Bft)
26.02.2014 03:08 7,7 C 5,6 C 92 % 1010,9 hPa 0,0 l/m 0 min 2 min 0,0 UV-I 0 W/m 0,0 km/h (0 Bft)
26.02.2014 03:10 7,7 C 5,6 C 92 % 1011,0 hPa 0,0 l/m 0 min 2 min 0,0 UV-I 0 W/m 12,9 km/h (3 Bft)
26.02.2014 03:12 7,7 C 6,1 C 92 % 1011,0 hPa 0,0 l/m 0 min 2 min 0,0 UV-I 0 W/m 7,7 km/h (2 Bft)
26.02.2014 03:14 7,7 C 6,1 C 93 % 1011,0 hPa 0,2 l/m 0 min 2 min 0,0 UV-I 0 W/m 10,3 km/h (2 Bft)
26.02.2014 03:16 7,7 C 6,1 C 93 % 1011,1 hPa 0,2 l/m 0 min 2 min 0,0 UV-I 0 W/m 2,6 km/h (1 Bft)
26.02.2014 03:18 7,7 C 6,1 C 93 % 1011,1 hPa 0,0 l/m 0 min 2 min 0,0 UV-I 0 W/m 7,7 km/h (2 Bft)
26.02.2014 03:20 7,7 C 6,1 C 93 % 1011,1 hPa 0,2 l/m 0 min 2 min 0,0 UV-I 0 W/m 2,6 km/h (1 Bft)
26.02.2014 03:22 7,7 C 5,6 C 93 % 1011,1 hPa 0,2 l/m 0 min 2 min 0,0 UV-I 0 W/m 2,6 km/h (1 Bft)
26.02.2014 03:24 7,7 C 5,6 C 93 % 1011,1 hPa 0,0 l/m 0 min 2 min 0,0 UV-I 0 W/m 10,3 km/h (2 Bft)
26.02.2014 03:26 7,7 C 5,6 C 93 % 1011,2 hPa 0,0 l/m 0 min 2 min 0,0 UV-I 0 W/m 0,0 km/h (0 Bft)
26.02.2014 03:28 7,7 C 5,6 C 93 % 1011,2 hPa 0,0 l/m 0 min 2 min 0,0 UV-I 0 W/m 10,3 km/h (2 Bft)
26.02.2014 03:30 7,6 C 5,6 C 93 % 1011,1 hPa 0,2 l/m 0 min 2 min 0,0 UV-I 0 W/m 12,9 km/h (3 Bft)
26.02.2014 03:32 7,6 C 5,6 C 93 % 1011,2 hPa 0,2 l/m 0 min 2 min 0,0 UV-I 0 W/m 10,3 km/h (2 Bft)
26.02.2014 03:34 7,6 C 5,6 C 93 % 1011,1 hPa 0,0 l/m 0 min 2 min 0,0 UV-I 0 W/m 10,3 km/h (2 Bft)
26.02.2014 03:36 7,7 C 5,6 C 93 % 1011,2 hPa 0,0 l/m 0 min 2 min 0,0 UV-I 0 W/m 7,7 km/h (2 Bft)
26.02.2014 03:38 7,7 C 5,6 C 93 % 1011,2 hPa 0,0 l/m 0 min 2 min 0,0 UV-I 0 W/m 0,0 km/h (0 Bft)
26.02.2014 03:40 7,6 C 5,6 C 93 % 1011,2 hPa 0,2 l/m 0 min 2 min 0,0 UV-I 0 W/m 0,0 km/h (0 Bft)
26.02.2014 03:42 7,6 C 5,6 C 93 % 1011,2 hPa 0,0 l/m 0 min 2 min 0,0 UV-I 0 W/m 0,0 km/h (0 Bft)
26.02.2014 03:44 7,6 C 5,6 C 94 % 1011,2 hPa 0,0 l/m 0 min 2 min 0,0 UV-I 0 W/m 0,0 km/h (0 Bft)
26.02.2014 03:46 7,5 C 5,6 C 93 % 1011,2 hPa 0,2 l/m 0 min 2 min 0,0 UV-I 0 W/m 7,7 km/h (2 Bft)
26.02.2014 03:48 7,5 C 5,6 C 94 % 1011,2 hPa 0,0 l/m 0 min 2 min 0,0 UV-I 0 W/m 2,6 km/h (1 Bft)
26.02.2014 03:50 7,4 C 5,6 C 94 % 1011,2 hPa 0,0 l/m 0 min 2 min 0,0 UV-I 0 W/m 5,1 km/h (1 Bft)
26.02.2014 03:52 7,4 C 5,6 C 94 % 1011,2 hPa 0,0 l/m 0 min 2 min 0,0 UV-I 0 W/m 0,0 km/h (0 Bft)
26.02.2014 03:54 7,4 C 5,6 C 94 % 1011,2 hPa 0,0 l/m 0 min 2 min 0,0 UV-I 0 W/m 5,1 km/h (1 Bft)
26.02.2014 03:56 7,4 C 5,6 C 94 % 1011,2 hPa 0,0 l/m 0 min 2 min 0,0 UV-I 0 W/m 0,0 km/h (0 Bft)
26.02.2014 03:58 7,3 C 5,6 C 94 % 1011,2 hPa 0,0 l/m 0 min 2 min 0,0 UV-I 0 W/m 0,0 km/h (0 Bft)
26.02.2014 04:00 7,3 C 5,6 C 94 % 1011,3 hPa 0,0 l/m 0 min 2 min 0,0 UV-I 0 W/m 0,0 km/h (0 Bft)
26.02.2014 04:02 7,3 C 5,6 C 94 % 1011,2 hPa 0,0 l/m 0 min 2 min 0,0 UV-I 0 W/m 0,0 km/h (0 Bft)
26.02.2014 04:04 7,2 C 5,6 C 94 % 1011,2 hPa 0,0 l/m 0 min 2 min 0,0 UV-I 0 W/m 0,0 km/h (0 Bft)
26.02.2014 04:06 7,2 C 5,6 C 95 % 1011,3 hPa 0,0 l/m 0 min 2 min 0,0 UV-I 0 W/m 0,0 km/h (0 Bft)
26.02.2014 04:08 7,2 C 5,6 C 95 % 1011,3 hPa 0,0 l/m 0 min 2 min 0,0 UV-I 0 W/m 2,6 km/h (1 Bft)
26.02.2014 04:10 7,2 C 5,6 C 95 % 1011,2 hPa 0,0 l/m 0 min 2 min 0,0 UV-I 0 W/m 0,0 km/h (0 Bft)
26.02.2014 04:12 7,2 C 5,6 C 95 % 1011,2 hPa 0,0 l/m 0 min 2 min 0,0 UV-I 0 W/m 0,0 km/h (0 Bft)
26.02.2014 04:14 7,2 C 5,6 C 95 % 1011,3 hPa 0,0 l/m 0 min 0 min 0,0 UV-I 0 W/m 0,0 km/h (0 Bft)
26.02.2014 04:16 7,2 C 5,6 C 95 % 1011,3 hPa 0,0 l/m 0 min 2 min 0,0 UV-I 0 W/m 5,1 km/h (1 Bft)
26.02.2014 04:18 7,2 C 5,6 C 95 % 1011,3 hPa 0,0 l/m 0 min 2 min 0,0 UV-I 0 W/m 0,0 km/h (0 Bft)
26.02.2014 04:20 7,2 C 5,6 C 95 % 1011,4 hPa 0,0 l/m 0 min 2 min 0,0 UV-I 0 W/m 0,0 km/h (0 Bft)
26.02.2014 04:22 7,2 C 5,6 C 95 % 1011,4 hPa 0,0 l/m 0 min 2 min 0,0 UV-I 0 W/m 0,0 km/h (0 Bft)
26.02.2014 04:24 7,2 C 5,6 C 95 % 1011,4 hPa 0,0 l/m 0 min 2 min 0,0 UV-I 0 W/m 0,0 km/h (0 Bft)
26.02.2014 04:26 7,2 C 5,6 C 95 % 1011,4 hPa 0,0 l/m 0 min 2 min 0,0 UV-I 0 W/m 0,0 km/h (0 Bft)
26.02.2014 04:28 7,2 C 5,6 C 95 % 1011,4 hPa 0,0 l/m 0 min 2 min 0,0 UV-I 0 W/m 0,0 km/h (0 Bft)
26.02.2014 04:30 7,2 C 5,6 C 96 % 1011,4 hPa 0,0 l/m 0 min 2 min 0,0 UV-I 0 W/m 0,0 km/h (0 Bft)
26.02.2014 04:32 7,2 C 5,6 C 96 % 1011,4 hPa 0,0 l/m 0 min 2 min 0,0 UV-I 0 W/m 0,0 km/h (0 Bft)
26.02.2014 04:34 7,2 C 5,6 C 96 % 1011,5 hPa 0,0 l/m 0 min 2 min 0,0 UV-I 0 W/m 0,0 km/h (0 Bft)
26.02.2014 04:36 7,2 C 5,6 C 96 % 1011,5 hPa 0,2 l/m 0 min 2 min 0,0 UV-I 0 W/m 2,6 km/h (1 Bft)
26.02.2014 04:38 7,2 C 5,6 C 96 % 1011,5 hPa 0,0 l/m 0 min 2 min 0,0 UV-I 0 W/m 0,0 km/h (0 Bft)
26.02.2014 04:40 7,2 C 5,6 C 96 % 1011,4 hPa 0,0 l/m 0 min 2 min 0,0 UV-I 0 W/m 0,0 km/h (0 Bft)
26.02.2014 04:42 7,2 C 5,6 C 96 % 1011,4 hPa 0,0 l/m 0 min 2 min 0,0 UV-I 0 W/m 0,0 km/h (0 Bft)
26.02.2014 04:44 7,2 C 5,6 C 96 % 1011,4 hPa 0,0 l/m 0 min 2 min 0,0 UV-I 0 W/m 0,0 km/h (0 Bft)
26.02.2014 04:46 7,2 C 5,6 C 96 % 1011,4 hPa 0,0 l/m 0 min 2 min 0,0 UV-I 0 W/m 0,0 km/h (0 Bft)
26.02.2014 04:48 7,2 C 5,6 C 96 % 1011,4 hPa 0,0 l/m 0 min 2 min 0,0 UV-I 0 W/m 0,0 km/h (0 Bft)
26.02.2014 04:50 7,2 C 5,6 C 96 % 1011,4 hPa 0,0 l/m 0 min 2 min 0,0 UV-I 0 W/m 0,0 km/h (0 Bft)
26.02.2014 04:52 7,2 C 5,6 C 96 % 1011,5 hPa 0,0 l/m 0 min 2 min 0,0 UV-I 0 W/m 0,0 km/h (0 Bft)
26.02.2014 04:54 7,2 C 5,6 C 96 % 1011,5 hPa 0,0 l/m 0 min 0 min 0,0 UV-I 0 W/m 0,0 km/h (0 Bft)
26.02.2014 04:56 7,2 C 5,6 C 96 % 1011,5 hPa 0,0 l/m 0 min 2 min 0,0 UV-I 0 W/m 0,0 km/h (0 Bft)
26.02.2014 04:58 7,2 C 5,6 C 96 % 1011,5 hPa 0,0 l/m 0 min 2 min 0,0 UV-I 0 W/m 0,0 km/h (0 Bft)
26.02.2014 05:00 7,2 C 5,6 C 96 % 1011,5 hPa 0,0 l/m 0 min 2 min 0,0 UV-I 0 W/m 0,0 km/h (0 Bft)
26.02.2014 05:02 7,2 C 5,6 C 96 % 1011,5 hPa 0,2 l/m 0 min 2 min 0,0 UV-I 0 W/m 0,0 km/h (0 Bft)
26.02.2014 05:04 7,2 C 5,6 C 96 % 1011,5 hPa 0,0 l/m 0 min 2 min 0,0 UV-I 0 W/m 0,0 km/h (0 Bft)
26.02.2014 05:06 7,2 C 5,6 C 96 % 1011,6 hPa 0,0 l/m 0 min 2 min 0,0 UV-I 0 W/m 0,0 km/h (0 Bft)
26.02.2014 05:08 7,2 C 5,6 C 97 % 1011,6 hPa 0,0 l/m 0 min 2 min 0,0 UV-I 0 W/m 0,0 km/h (0 Bft)
26.02.2014 05:10 7,2 C 5,6 C 97 % 1011,6 hPa 0,0 l/m 0 min 2 min 0,0 UV-I 0 W/m 0,0 km/h (0 Bft)
26.02.2014 05:12 7,2 C 5,6 C 97 % 1011,6 hPa 0,0 l/m 0 min 2 min 0,0 UV-I 0 W/m 0,0 km/h (0 Bft)
26.02.2014 05:14 7,2 C 5,6 C 97 % 1011,6 hPa 0,0 l/m 0 min 2 min 0,0 UV-I 0 W/m 0,0 km/h (0 Bft)
26.02.2014 05:16 7,1 C 5,6 C 96 % 1011,7 hPa 0,0 l/m 0 min 2 min 0,0 UV-I 0 W/m 0,0 km/h (0 Bft)
26.02.2014 05:18 7,1 C 5,6 C 96 % 1011,8 hPa 0,0 l/m 0 min 2 min 0,0 UV-I 0 W/m 0,0 km/h (0 Bft)
26.02.2014 05:20 7,1 C 5,6 C 96 % 1011,8 hPa 0,0 l/m 0 min 2 min 0,0 UV-I 0 W/m 2,6 km/h (1 Bft)
26.02.2014 05:22 7,1 C 5,6 C 97 % 1011,9 hPa 0,0 l/m 0 min 2 min 0,0 UV-I 0 W/m 12,9 km/h (3 Bft)
26.02.2014 05:24 7,1 C 5,6 C 97 % 1011,9 hPa 0,0 l/m 0 min 2 min 0,0 UV-I 0 W/m 0,0 km/h (0 Bft)
26.02.2014 05:26 7,1 C 5,6 C 97 % 1011,9 hPa 0,0 l/m 0 min 0 min 0,0 UV-I 0 W/m 0,0 km/h (0 Bft)
26.02.2014 05:28 7,1 C 5,6 C 97 % 1012,0 hPa 0,0 l/m 0 min 0 min 0,0 UV-I 0 W/m 7,7 km/h (2 Bft)
26.02.2014 05:30 7,1 C 5,6 C 97 % 1011,9 hPa 0,0 l/m 0 min 2 min 0,0 UV-I 0 W/m 7,7 km/h (2 Bft)
26.02.2014 05:32 7,1 C 5,6 C 97 % 1011,9 hPa 0,0 l/m 0 min 0 min 0,0 UV-I 0 W/m 0,0 km/h (0 Bft)
26.02.2014 05:34 7,0 C 5,6 C 97 % 1012,0 hPa 0,0 l/m 0 min 2 min 0,0 UV-I 0 W/m 5,1 km/h (1 Bft)
26.02.2014 05:36 7,0 C 5,6 C 97 % 1012,0 hPa 0,0 l/m 0 min 2 min 0,0 UV-I 0 W/m 0,0 km/h (0 Bft)
26.02.2014 05:38 7,0 C 5,6 C 97 % 1011,9 hPa 0,0 l/m 0 min 2 min 0,0 UV-I 0 W/m 0,0 km/h (0 Bft)
26.02.2014 05:40 7,0 C 5,6 C 97 % 1011,9 hPa 0,0 l/m 0 min 2 min 0,0 UV-I 0 W/m 0,0 km/h (0 Bft)
26.02.2014 05:42 7,0 C 5,6 C 97 % 1011,9 hPa 0,0 l/m 0 min 0 min 0,0 UV-I 0 W/m 0,0 km/h (0 Bft)
26.02.2014 05:44 7,0 C 5,6 C 97 % 1011,9 hPa 0,0 l/m 0 min 0 min 0,0 UV-I 0 W/m 0,0 km/h (0 Bft)
26.02.2014 05:46 6,9 C 5,6 C 97 % 1012,0 hPa 0,0 l/m 0 min 0 min 0,0 UV-I 0 W/m 0,0 km/h (0 Bft)
26.02.2014 05:48 7,0 C 5,6 C 97 % 1012,0 hPa 0,0 l/m 0 min 0 min 0,0 UV-I 0 W/m 2,6 km/h (1 Bft)
26.02.2014 05:50 6,9 C 5,6 C 97 % 1012,0 hPa 0,0 l/m 0 min 0 min 0,0 UV-I 0 W/m 0,0 km/h (0 Bft)
26.02.2014 05:52 6,9 C 5,6 C 97 % 1012,0 hPa 0,0 l/m 0 min 0 min 0,0 UV-I 0 W/m 2,6 km/h (1 Bft)
26.02.2014 05:54 6,9 C 5,6 C 97 % 1012,1 hPa 0,0 l/m 0 min 0 min 0,0 UV-I 0 W/m 0,0 km/h (0 Bft)
26.02.2014 05:56 6,9 C 5,6 C 97 % 1012,1 hPa 0,0 l/m 0 min 0 min 0,0 UV-I 0 W/m 0,0 km/h (0 Bft)
26.02.2014 05:58 6,9 C 5,6 C 97 % 1012,1 hPa 0,0 l/m 0 min 0 min 0,0 UV-I 0 W/m 0,0 km/h (0 Bft)
26.02.2014 06:00 6,9 C 5,6 C 97 % 1012,1 hPa 0,0 l/m 0 min 0 min 0,0 UV-I 0 W/m 0,0 km/h (0 Bft)
26.02.2014 06:02 6,9 C 5,6 C 97 % 1012,2 hPa 0,0 l/m 0 min 0 min 0,0 UV-I 0 W/m 0,0 km/h (0 Bft)
26.02.2014 06:04 6,9 C 5,6 C 97 % 1012,1 hPa 0,0 l/m 0 min 0 min 0,0 UV-I 0 W/m 7,7 km/h (2 Bft)
26.02.2014 06:06 6,9 C 5,6 C 97 % 1012,1 hPa 0,0 l/m 0 min 0 min 0,0 UV-I 0 W/m 5,1 km/h (1 Bft)
26.02.2014 06:08 6,9 C 5,6 C 97 % 1012,1 hPa 0,0 l/m 0 min 0 min 0,0 UV-I 0 W/m 5,1 km/h (1 Bft)
26.02.2014 06:10 6,9 C 5,6 C 97 % 1012,1 hPa 0,0 l/m 0 min 0 min 0,0 UV-I 0 W/m 7,7 km/h (2 Bft)
26.02.2014 06:12 6,9 C 5,6 C 97 % 1012,2 hPa 0,0 l/m 0 min 0 min 0,0 UV-I 0 W/m 0,0 km/h (0 Bft)
26.02.2014 06:14 6,9 C 5,6 C 97 % 1012,2 hPa 0,0 l/m 0 min 0 min 0,0 UV-I 0 W/m 0,0 km/h (0 Bft)
26.02.2014 06:16 6,9 C 5,6 C 97 % 1012,2 hPa 0,0 l/m 0 min 0 min 0,0 UV-I 0 W/m 0,0 km/h (0 Bft)
26.02.2014 06:18 6,9 C 5,6 C 97 % 1012,3 hPa 0,0 l/m 0 min 0 min 0,0 UV-I 0 W/m 2,6 km/h (1 Bft)
26.02.2014 06:20 6,9 C 5,6 C 97 % 1012,3 hPa 0,0 l/m 0 min 0 min 0,0 UV-I 0 W/m 0,0 km/h (0 Bft)
26.02.2014 06:22 6,9 C 5,6 C 97 % 1012,3 hPa 0,0 l/m 0 min 0 min 0,0 UV-I 0 W/m 0,0 km/h (0 Bft)
26.02.2014 06:24 6,9 C 5,6 C 97 % 1012,4 hPa 0,0 l/m 0 min 0 min 0,0 UV-I 0 W/m 2,6 km/h (1 Bft)
26.02.2014 06:26 6,9 C 5,6 C 97 % 1012,4 hPa 0,0 l/m 0 min 0 min 0,0 UV-I 0 W/m 0,0 km/h (0 Bft)
26.02.2014 06:28 6,9 C 5,6 C 97 % 1012,5 hPa 0,0 l/m 0 min 0 min 0,0 UV-I 0 W/m 0,0 km/h (0 Bft)
26.02.2014 06:30 6,9 C 5,6 C 97 % 1012,6 hPa 0,0 l/m 0 min 0 min 0,0 UV-I 0 W/m 0,0 km/h (0 Bft)
26.02.2014 06:32 6,9 C 5,6 C 97 % 1012,5 hPa 0,0 l/m 0 min 0 min 0,0 UV-I 0 W/m 0,0 km/h (0 Bft)
26.02.2014 06:34 6,9 C 5,6 C 97 % 1012,5 hPa 0,0 l/m 0 min 0 min 0,0 UV-I 0 W/m 0,0 km/h (0 Bft)
26.02.2014 06:36 6,9 C 5,6 C 97 % 1012,6 hPa 0,0 l/m 0 min 0 min 0,0 UV-I 0 W/m 0,0 km/h (0 Bft)
26.02.2014 06:38 6,9 C 5,6 C 97 % 1012,6 hPa 0,0 l/m 0 min 0 min 0,0 UV-I 0 W/m 0,0 km/h (0 Bft)
26.02.2014 06:40 6,8 C 5,6 C 97 % 1012,6 hPa 0,0 l/m 0 min 0 min 0,0 UV-I 0 W/m 0,0 km/h (0 Bft)
26.02.2014 06:42 6,8 C 5,6 C 97 % 1012,5 hPa 0,0 l/m 0 min 0 min 0,0 UV-I 0 W/m 0,0 km/h (0 Bft)
26.02.2014 06:44 6,8 C 5,6 C 97 % 1012,6 hPa 0,0 l/m 0 min 0 min 0,0 UV-I 0 W/m 0,0 km/h (0 Bft)
26.02.2014 06:46 6,8 C 5,0 C 97 % 1012,4 hPa 0,0 l/m 0 min 0 min 0,0 UV-I 0 W/m 0,0 km/h (0 Bft)
26.02.2014 06:48 6,7 C 5,0 C 97 % 1012,4 hPa 0,0 l/m 0 min 0 min 0,0 UV-I 0 W/m 0,0 km/h (0 Bft)
26.02.2014 06:50 6,7 C 5,0 C 97 % 1012,3 hPa 0,0 l/m 0 min 0 min 0,0 UV-I 0 W/m 0,0 km/h (0 Bft)
26.02.2014 06:52 6,7 C 5,0 C 97 % 1012,3 hPa 0,0 l/m 0 min 0 min 0,0 UV-I 0 W/m 0,0 km/h (0 Bft)
26.02.2014 06:54 6,7 C 5,0 C 97 % 1012,4 hPa 0,0 l/m 0 min 0 min 0,0 UV-I 0 W/m 0,0 km/h (0 Bft)
26.02.2014 06:56 6,7 C 5,0 C 97 % 1012,4 hPa 0,0 l/m 0 min 0 min 0,0 UV-I 0 W/m 0,0 km/h (0 Bft)
26.02.2014 06:58 6,6 C 5,0 C 97 % 1012,5 hPa 0,0 l/m 0 min 0 min 0,0 UV-I 0 W/m 0,0 km/h (0 Bft)
26.02.2014 07:00 6,6 C 5,0 C 97 % 1012,6 hPa 0,0 l/m 0 min 0 min 0,0 UV-I 0 W/m 0,0 km/h (0 Bft)
26.02.2014 07:02 6,6 C 5,0 C 97 % 1012,6 hPa 0,0 l/m 0 min 0 min 0,0 UV-I 0 W/m 0,0 km/h (0 Bft)
26.02.2014 07:04 6,6 C 5,0 C 97 % 1012,7 hPa 0,0 l/m 0 min 0 min 0,0 UV-I 0 W/m 0,0 km/h (0 Bft)
26.02.2014 07:06 6,6 C 5,0 C 97 % 1012,8 hPa 0,0 l/m 0 min 0 min 0,0 UV-I 0 W/m 0,0 km/h (0 Bft)
26.02.2014 07:08 6,6 C 5,0 C 97 % 1012,8 hPa 0,0 l/m 0 min 0 min 0,0 UV-I 0 W/m 0,0 km/h (0 Bft)
26.02.2014 07:10 6,5 C 5,0 C 97 % 1012,8 hPa 0,0 l/m 0 min 0 min 0,0 UV-I 0 W/m 0,0 km/h (0 Bft)
26.02.2014 07:12 6,5 C 5,0 C 97 % 1012,8 hPa 0,0 l/m 0 min 0 min 0,0 UV-I 0 W/m 0,0 km/h (0 Bft)
26.02.2014 07:14 6,5 C 5,0 C 97 % 1012,8 hPa 0,0 l/m 0 min 0 min 0,0 UV-I 0 W/m 0,0 km/h (0 Bft)
26.02.2014 07:16 6,5 C 5,0 C 97 % 1012,8 hPa 0,0 l/m 0 min 0 min 0,0 UV-I 0 W/m 0,0 km/h (0 Bft)
26.02.2014 07:18 6,5 C 5,0 C 97 % 1012,9 hPa 0,0 l/m 0 min 0 min 0,0 UV-I 0 W/m 0,0 km/h (0 Bft)
26.02.2014 07:20 6,5 C 5,0 C 97 % 1012,9 hPa 0,0 l/m 0 min 0 min 0,0 UV-I 0 W/m 0,0 km/h (0 Bft)
26.02.2014 07:22 6,5 C 5,0 C 97 % 1013,0 hPa 0,0 l/m 0 min 0 min 0,0 UV-I 0 W/m 0,0 km/h (0 Bft)
26.02.2014 07:24 6,4 C 5,0 C 97 % 1013,0 hPa 0,0 l/m 0 min 0 min 0,0 UV-I 0 W/m 0,0 km/h (0 Bft)
26.02.2014 07:26 6,5 C 5,0 C 97 % 1013,0 hPa 0,0 l/m 0 min 0 min 0,0 UV-I 0 W/m 0,0 km/h (0 Bft)
26.02.2014 07:28 6,5 C 5,0 C 97 % 1013,1 hPa 0,0 l/m 0 min 0 min 0,0 UV-I 0 W/m 0,0 km/h (0 Bft)
26.02.2014 07:30 6,5 C 5,0 C 97 % 1013,2 hPa 0,0 l/m 0 min 0 min 0,0 UV-I 5 W/m 0,0 km/h (0 Bft)
26.02.2014 07:32 6,5 C 5,0 C 97 % 1013,2 hPa 0,0 l/m 0 min 0 min 0,0 UV-I 7 W/m 0,0 km/h (0 Bft)
26.02.2014 07:34 6,5 C 5,0 C 97 % 1013,2 hPa 0,0 l/m 0 min 0 min 0,0 UV-I 7 W/m 0,0 km/h (0 Bft)
26.02.2014 07:36 6,6 C 5,0 C 97 % 1013,1 hPa 0,0 l/m 0 min 0 min 0,0 UV-I 7 W/m 0,0 km/h (0 Bft)
26.02.2014 07:38 6,6 C 5,0 C 97 % 1013,2 hPa 0,0 l/m 0 min 0 min 0,0 UV-I 9 W/m 0,0 km/h (0 Bft)
26.02.2014 07:40 6,6 C 5,0 C 97 % 1013,2 hPa 0,0 l/m 0 min 0 min 0,0 UV-I 9 W/m 0,0 km/h (0 Bft)
26.02.2014 07:42 6,6 C 5,0 C 97 % 1013,2 hPa 0,0 l/m 0 min 0 min 0,0 UV-I 9 W/m 0,0 km/h (0 Bft)
26.02.2014 07:44 6,6 C 5,0 C 97 % 1013,3 hPa 0,0 l/m 0 min 0 min 0,0 UV-I 11 W/m 0,0 km/h (0 Bft)
26.02.2014 07:46 6,6 C 5,0 C 97 % 1013,3 hPa 0,0 l/m 0 min 0 min 0,0 UV-I 12 W/m 0,0 km/h (0 Bft)
26.02.2014 07:48 6,6 C 5,0 C 97 % 1013,4 hPa 0,0 l/m 0 min 0 min 0,0 UV-I 12 W/m 0,0 km/h (0 Bft)
26.02.2014 07:50 6,6 C 5,0 C 97 % 1013,4 hPa 0,0 l/m 0 min 0 min 0,0 UV-I 12 W/m 5,1 km/h (1 Bft)
26.02.2014 07:52 6,6 C 5,0 C 97 % 1013,4 hPa 0,0 l/m 0 min 0 min 0,0 UV-I 14 W/m 2,6 km/h (1 Bft)
26.02.2014 07:54 6,6 C 5,0 C 97 % 1013,3 hPa 0,0 l/m 0 min 0 min 0,0 UV-I 18 W/m 0,0 km/h (0 Bft)
26.02.2014 07:56 6,6 C 5,0 C 97 % 1013,4 hPa 0,0 l/m 0 min 0 min 0,0 UV-I 23 W/m 0,0 km/h (0 Bft)
26.02.2014 07:58 6,6 C 5,0 C 97 % 1013,5 hPa 0,0 l/m 0 min 0 min 0,0 UV-I 26 W/m 2,6 km/h (1 Bft)
26.02.2014 08:00 6,7 C 5,6 C 97 % 1013,6 hPa 0,0 l/m 0 min 0 min 0,0 UV-I 28 W/m 0,0 km/h (0 Bft)
26.02.2014 08:02 6,7 C 5,6 C 97 % 1013,6 hPa 0,0 l/m 0 min 0 min 0,0 UV-I 30 W/m 0,0 km/h (0 Bft)
26.02.2014 08:04 6,7 C 5,6 C 97 % 1013,6 hPa 0,0 l/m 0 min 0 min 0,0 UV-I 30 W/m 0,0 km/h (0 Bft)
26.02.2014 08:06 6,7 C 5,6 C 97 % 1013,6 hPa 0,0 l/m 0 min 0 min 0,0 UV-I 28 W/m 0,0 km/h (0 Bft)
26.02.2014 08:08 6,7 C 5,6 C 97 % 1013,6 hPa 0,0 l/m 0 min 0 min 0,0 UV-I 30 W/m 0,0 km/h (0 Bft)
26.02.2014 08:10 6,7 C 5,6 C 97 % 1013,7 hPa 0,0 l/m 0 min 0 min 0,0 UV-I 32 W/m 0,0 km/h (0 Bft)
26.02.2014 08:12 6,7 C 5,6 C 97 % 1013,7 hPa 0,0 l/m 0 min 0 min 0,0 UV-I 33 W/m 0,0 km/h (0 Bft)
26.02.2014 08:14 6,7 C 5,6 C 97 % 1013,6 hPa 0,0 l/m 0 min 0 min 0,0 UV-I 39 W/m 0,0 km/h (0 Bft)
26.02.2014 08:16 6,7 C 5,6 C 97 % 1013,6 hPa 0,0 l/m 0 min 0 min 0,0 UV-I 40 W/m 0,0 km/h (0 Bft)
26.02.2014 08:18 6,8 C 5,6 C 97 % 1013,6 hPa 0,0 l/m 0 min 0 min 0,0 UV-I 42 W/m 0,0 km/h (0 Bft)
26.02.2014 08:20 6,8 C 5,6 C 97 % 1013,6 hPa 0,0 l/m 0 min 0 min 0,0 UV-I 51 W/m 0,0 km/h (0 Bft)
26.02.2014 08:22 6,8 C 5,6 C 97 % 1013,6 hPa 0,0 l/m 0 min 0 min 0,0 UV-I 56 W/m 0,0 km/h (0 Bft)
26.02.2014 08:24 6,8 C 5,6 C 97 % 1013,6 hPa 0,0 l/m 0 min 0 min 0,0 UV-I 63 W/m 0,0 km/h (0 Bft)
26.02.2014 08:26 6,8 C 5,6 C 97 % 1013,6 hPa 0,0 l/m 0 min 0 min 0,0 UV-I 70 W/m 0,0 km/h (0 Bft)
26.02.2014 08:28 6,9 C 5,6 C 97 % 1013,6 hPa 0,0 l/m 0 min 0 min 0,0 UV-I 72 W/m 0,0 km/h (0 Bft)
26.02.2014 08:30 6,9 C 5,6 C 97 % 1013,6 hPa 0,0 l/m 0 min 0 min 0,0 UV-I 76 W/m 0,0 km/h (0 Bft)
26.02.2014 08:32 6,9 C 5,6 C 97 % 1013,6 hPa 0,0 l/m 2 min 0 min 0,0 UV-I 120 W/m 0,0 km/h (0 Bft)
26.02.2014 08:34 6,9 C 6,1 C 97 % 1013,6 hPa 0,0 l/m 2 min 0 min 0,0 UV-I 105 W/m 0,0 km/h (0 Bft)
26.02.2014 08:36 7,0 C 6,1 C 97 % 1013,6 hPa 0,0 l/m 2 min 0 min 0,0 UV-I 93 W/m 0,0 km/h (0 Bft)
26.02.2014 08:38 7,1 C 6,1 C 97 % 1013,7 hPa 0,0 l/m 0 min 0 min 0,0 UV-I 90 W/m 0,0 km/h (0 Bft)
26.02.2014 08:40 7,1 C 6,1 C 97 % 1013,7 hPa 0,0 l/m 0 min 0 min 0,0 UV-I 90 W/m 0,0 km/h (0 Bft)
26.02.2014 08:42 7,2 C 6,1 C 97 % 1013,7 hPa 0,0 l/m 0 min 0 min 0,0 UV-I 90 W/m 0,0 km/h (0 Bft)
26.02.2014 08:44 7,2 C 6,1 C 97 % 1013,8 hPa 0,0 l/m 0 min 0 min 0,0 UV-I 90 W/m 0,0 km/h (0 Bft)
26.02.2014 08:46 7,2 C 6,1 C 97 % 1013,8 hPa 0,0 l/m 0 min 0 min 0,0 UV-I 86 W/m 0,0 km/h (0 Bft)
26.02.2014 08:48 7,3 C 6,1 C 97 % 1013,8 hPa 0,0 l/m 0 min 0 min 0,0 UV-I 83 W/m 0,0 km/h (0 Bft)
26.02.2014 08:50 7,4 C 6,1 C 97 % 1013,8 hPa 0,0 l/m 0 min 0 min 0,0 UV-I 81 W/m 0,0 km/h (0 Bft)
26.02.2014 08:52 7,3 C 6,1 C 97 % 1013,8 hPa 0,0 l/m 0 min 0 min 0,0 UV-I 81 W/m 0,0 km/h (0 Bft)
26.02.2014 08:54 7,3 C 6,1 C 97 % 1013,9 hPa 0,0 l/m 0 min 0 min 0,0 UV-I 86 W/m 0,0 km/h (0 Bft)
26.02.2014 08:56 7,4 C 6,7 C 97 % 1013,9 hPa 0,0 l/m 0 min 0 min 0,0 UV-I 91 W/m 0,0 km/h (0 Bft)
26.02.2014 08:58 7,5 C 6,7 C 97 % 1014,0 hPa 0,0 l/m 0 min 0 min 0,0 UV-I 93 W/m 0,0 km/h (0 Bft)
26.02.2014 09:00 7,5 C 6,7 C 97 % 1014,1 hPa 0,0 l/m 0 min 0 min 0,0 UV-I 93 W/m 5,1 km/h (1 Bft)
26.02.2014 09:02 7,5 C 6,7 C 97 % 1014,1 hPa 0,0 l/m 0 min 0 min 0,0 UV-I 95 W/m 0,0 km/h (0 Bft)
26.02.2014 09:04 7,6 C 6,7 C 97 % 1014,1 hPa 0,0 l/m 0 min 0 min 0,0 UV-I 93 W/m 2,6 km/h (1 Bft)
26.02.2014 09:06 7,6 C 6,7 C 97 % 1014,1 hPa 0,0 l/m 0 min 0 min 0,0 UV-I 81 W/m 2,6 km/h (1 Bft)
26.02.2014 09:08 7,5 C 6,7 C 97 % 1014,1 hPa 0,0 l/m 0 min 0 min 0,0 UV-I 72 W/m 2,6 km/h (1 Bft)
26.02.2014 09:10 7,5 C 6,7 C 97 % 1014,1 hPa 0,0 l/m 0 min 0 min 0,0 UV-I 74 W/m 0,0 km/h (0 Bft)
26.02.2014 09:12 7,6 C 6,7 C 97 % 1014,1 hPa 0,0 l/m 0 min 0 min 0,0 UV-I 90 W/m 2,6 km/h (1 Bft)
26.02.2014 09:14 7,6 C 6,7 C 97 % 1014,2 hPa 0,0 l/m 0 min 0 min 0,0 UV-I 98 W/m 0,0 km/h (0 Bft)
26.02.2014 09:16 7,6 C 6,7 C 97 % 1014,2 hPa 0,0 l/m 0 min 0 min 0,0 UV-I 98 W/m 0,0 km/h (0 Bft)
26.02.2014 09:18 7,6 C 6,7 C 97 % 1014,2 hPa 0,0 l/m 0 min 0 min 0,0 UV-I 93 W/m 5,1 km/h (1 Bft)
26.02.2014 09:20 7,6 C 6,7 C 97 % 1014,3 hPa 0,0 l/m 2 min 0 min 0,0 UV-I 151 W/m 0,0 km/h (0 Bft)
26.02.2014 09:22 7,6 C 6,7 C 97 % 1014,3 hPa 0,0 l/m 2 min 0 min 0,0 UV-I 167 W/m 0,0 km/h (0 Bft)
26.02.2014 09:24 7,7 C 6,7 C 97 % 1014,4 hPa 0,0 l/m 0 min 0 min 0,0 UV-I 120 W/m 0,0 km/h (0 Bft)
26.02.2014 09:26 7,7 C 6,7 C 97 % 1014,4 hPa 0,0 l/m 2 min 0 min 0,0 UV-I 190 W/m 7,7 km/h (2 Bft)
26.02.2014 09:28 7,7 C 6,1 C 97 % 1014,4 hPa 0,0 l/m 0 min 0 min 0,0 UV-I 105 W/m 0,0 km/h (0 Bft)
26.02.2014 09:30 7,7 C 6,7 C 97 % 1014,5 hPa 0,0 l/m 2 min 0 min 0,0 UV-I 163 W/m 7,7 km/h (2 Bft)
26.02.2014 09:32 7,7 C 6,1 C 96 % 1014,5 hPa 0,0 l/m 2 min 0 min 0,0 UV-I 183 W/m 2,6 km/h (1 Bft)
26.02.2014 09:34 7,8 C 6,1 C 96 % 1014,5 hPa 0,0 l/m 0 min 0 min 0,0 UV-I 155 W/m 2,6 km/h (1 Bft)
26.02.2014 09:36 7,8 C 6,1 C 96 % 1014,5 hPa 0,0 l/m 2 min 0 min 0,0 UV-I 193 W/m 2,6 km/h (1 Bft)
26.02.2014 09:38 7,9 C 6,1 C 96 % 1014,5 hPa 0,0 l/m 0 min 0 min 0,0 UV-I 153 W/m 0,0 km/h (0 Bft)
26.02.2014 09:40 8,0 C 6,7 C 96 % 1014,5 hPa 0,0 l/m 2 min 0 min 0,0 UV-I 232 W/m 5,1 km/h (1 Bft)
26.02.2014 09:42 8,0 C 6,7 C 96 % 1014,5 hPa 0,0 l/m 0 min 0 min 0,0 UV-I 141 W/m 5,1 km/h (1 Bft)
26.02.2014 09:44 8,0 C 6,7 C 96 % 1014,5 hPa 0,0 l/m 2 min 0 min 0,0 UV-I 179 W/m 0,0 km/h (0 Bft)
26.02.2014 09:46 8,1 C 6,7 C 95 % 1014,6 hPa 0,0 l/m 2 min 0 min 0,0 UV-I 178 W/m 0,0 km/h (0 Bft)
26.02.2014 09:48 8,1 C 6,7 C 95 % 1014,6 hPa 0,0 l/m 0 min 0 min 0,0 UV-I 149 W/m 7,7 km/h (2 Bft)
26.02.2014 09:50 8,0 C 6,1 C 95 % 1014,6 hPa 0,0 l/m 0 min 0 min 0,0 UV-I 148 W/m 0,0 km/h (0 Bft)
26.02.2014 09:52 8,0 C 6,1 C 94 % 1014,7 hPa 0,0 l/m 0 min 0 min 0,0 UV-I 160 W/m 5,1 km/h (1 Bft)
26.02.2014 09:54 8,0 C 6,1 C 94 % 1014,6 hPa 0,0 l/m 2 min 0 min 0,0 UV-I 237 W/m 7,7 km/h (2 Bft)
26.02.2014 09:56 8,1 C 6,1 C 93 % 1014,6 hPa 0,0 l/m 0 min 0 min 0,0 UV-I 160 W/m 0,0 km/h (0 Bft)
26.02.2014 09:58 8,1 C 6,7 C 93 % 1014,6 hPa 0,0 l/m 2 min 0 min 0,0 UV-I 197 W/m 0,0 km/h (0 Bft)
26.02.2014 10:00 8,1 C 6,1 C 93 % 1014,6 hPa 0,0 l/m 0 min 0 min 0,0 UV-I 107 W/m 10,3 km/h (2 Bft)
26.02.2014 10:02 8,1 C 6,1 C 93 % 1014,5 hPa 0,0 l/m 0 min 0 min 0,0 UV-I 120 W/m 7,7 km/h (2 Bft)
26.02.2014 10:04 8,1 C 6,1 C 93 % 1014,6 hPa 0,0 l/m 0 min 0 min 0,0 UV-I 134 W/m 0,0 km/h (0 Bft)
26.02.2014 10:06 8,1 C 6,1 C 92 % 1014,6 hPa 0,0 l/m 0 min 0 min 0,0 UV-I 127 W/m 0,0 km/h (0 Bft)
26.02.2014 10:08 8,1 C 6,1 C 92 % 1014,7 hPa 0,0 l/m 0 min 0 min 0,0 UV-I 134 W/m 0,0 km/h (0 Bft)
26.02.2014 10:10 8,1 C 6,1 C 92 % 1014,7 hPa 0,0 l/m 0 min 0 min 0,0 UV-I 142 W/m 0,0 km/h (0 Bft)
26.02.2014 10:12 8,1 C 6,7 C 92 % 1014,7 hPa 0,0 l/m 0 min 0 min 0,0 UV-I 142 W/m 0,0 km/h (0 Bft)
26.02.2014 10:14 8,1 C 6,7 C 92 % 1014,8 hPa 0,0 l/m 0 min 0 min 0,0 UV-I 149 W/m 0,0 km/h (0 Bft)
26.02.2014 10:16 8,2 C 6,7 C 91 % 1014,7 hPa 0,0 l/m 0 min 0 min 0,0 UV-I 151 W/m 0,0 km/h (0 Bft)
26.02.2014 10:18 8,2 C 6,7 C 91 % 1014,8 hPa 0,0 l/m 0 min 0 min 0,0 UV-I 158 W/m 0,0 km/h (0 Bft)
26.02.2014 10:20 8,2 C 6,7 C 91 % 1014,8 hPa 0,0 l/m 0 min 0 min 0,0 UV-I 169 W/m 0,0 km/h (0 Bft)
26.02.2014 10:22 8,2 C 6,7 C 91 % 1014,8 hPa 0,0 l/m 0 min 0 min 0,0 UV-I 167 W/m 2,6 km/h (1 Bft)
26.02.2014 10:24 8,2 C 6,7 C 91 % 1014,8 hPa 0,0 l/m 0 min 0 min 0,0 UV-I 149 W/m 0,0 km/h (0 Bft)
26.02.2014 10:26 8,2 C 6,7 C 91 % 1014,7 hPa 0,0 l/m 0 min 0 min 0,0 UV-I 146 W/m 15,4 km/h (3 Bft)
26.02.2014 10:28 8,2 C 6,7 C 91 % 1014,9 hPa 0,0 l/m 0 min 0 min 0,0 UV-I 163 W/m 2,6 km/h (1 Bft)
26.02.2014 10:30 8,2 C 6,7 C 91 % 1014,9 hPa 0,0 l/m 0 min 0 min 0,0 UV-I 137 W/m 0,0 km/h (0 Bft)
26.02.2014 10:32 8,2 C 6,7 C 90 % 1014,9 hPa 0,0 l/m 0 min 0 min 0,0 UV-I 139 W/m 0,0 km/h (0 Bft)
26.02.2014 10:34 8,2 C 6,7 C 91 % 1014,9 hPa 0,0 l/m 0 min 0 min 0,0 UV-I 90 W/m 10,3 km/h (2 Bft)
26.02.2014 10:36 8,2 C 6,7 C 90 % 1015,0 hPa 0,0 l/m 0 min 0 min 0,0 UV-I 70 W/m 10,3 km/h (2 Bft)
26.02.2014 10:38 8,2 C 6,1 C 90 % 1015,1 hPa 0,0 l/m 0 min 0 min 0,0 UV-I 65 W/m 12,9 km/h (3 Bft)
26.02.2014 10:40 8,2 C 6,1 C 90 % 1015,1 hPa 0,0 l/m 0 min 0 min 0,0 UV-I 88 W/m 10,3 km/h (2 Bft)
26.02.2014 10:42 8,2 C 6,7 C 90 % 1015,1 hPa 0,0 l/m 0 min 0 min 0,0 UV-I 113 W/m 7,7 km/h (2 Bft)
26.02.2014 10:44 8,2 C 6,7 C 90 % 1015,2 hPa 0,0 l/m 0 min 0 min 0,0 UV-I 125 W/m 12,9 km/h (3 Bft)
26.02.2014 10:46 8,1 C 6,7 C 90 % 1015,2 hPa 0,0 l/m 0 min 0 min 0,0 UV-I 121 W/m 7,7 km/h (2 Bft)
26.02.2014 10:48 8,2 C 6,7 C 90 % 1015,2 hPa 0,0 l/m 0 min 0 min 0,0 UV-I 118 W/m 0,0 km/h (0 Bft)
26.02.2014 10:50 8,2 C 6,7 C 91 % 1015,1 hPa 0,0 l/m 0 min 0 min 0,0 UV-I 121 W/m 0,0 km/h (0 Bft)
26.02.2014 10:52 8,2 C 6,7 C 91 % 1015,2 hPa 0,0 l/m 0 min 0 min 0,0 UV-I 123 W/m 7,7 km/h (2 Bft)
26.02.2014 10:54 8,2 C 6,7 C 90 % 1015,2 hPa 0,0 l/m 0 min 0 min 0,0 UV-I 118 W/m 5,1 km/h (1 Bft)
26.02.2014 10:56 8,2 C 6,7 C 90 % 1015,2 hPa 0,0 l/m 0 min 0 min 0,0 UV-I 114 W/m 5,1 km/h (1 Bft)
26.02.2014 10:58 8,2 C 6,7 C 90 % 1015,2 hPa 0,0 l/m 0 min 0 min 0,0 UV-I 121 W/m 0,0 km/h (0 Bft)
26.02.2014 11:00 8,2 C 6,7 C 90 % 1015,2 hPa 0,0 l/m 0 min 0 min 0,0 UV-I 120 W/m 0,0 km/h (0 Bft)
26.02.2014 11:02 8,2 C 6,7 C 90 % 1015,2 hPa 0,0 l/m 0 min 0 min 0,0 UV-I 114 W/m 0,0 km/h (0 Bft)
26.02.2014 11:04 8,3 C 6,7 C 90 % 1015,2 hPa 0,0 l/m 0 min 0 min 0,0 UV-I 105 W/m 0,0 km/h (0 Bft)
26.02.2014 11:06 8,3 C 6,7 C 90 % 1015,3 hPa 0,0 l/m 0 min 0 min 0,0 UV-I 95 W/m 0,0 km/h (0 Bft)
26.02.2014 11:08 8,3 C 6,7 C 90 % 1015,3 hPa 0,0 l/m 0 min 0 min 0,0 UV-I 90 W/m 0,0 km/h (0 Bft)
26.02.2014 11:10 8,3 C 6,7 C 90 % 1015,4 hPa 0,0 l/m 0 min 0 min 0,0 UV-I 116 W/m 5,1 km/h (1 Bft)
26.02.2014 11:12 8,3 C 6,7 C 90 % 1015,4 hPa 0,0 l/m 0 min 0 min 0,0 UV-I 130 W/m 0,0 km/h (0 Bft)
26.02.2014 11:14 8,3 C 6,7 C 90 % 1015,4 hPa 0,0 l/m 0 min 0 min 0,0 UV-I 137 W/m 0,0 km/h (0 Bft)
26.02.2014 11:16 8,4 C 7,2 C 90 % 1015,4 hPa 0,0 l/m 0 min 0 min 0,0 UV-I 141 W/m 10,3 km/h (2 Bft)
26.02.2014 11:18 8,4 C 7,2 C 90 % 1015,5 hPa 0,0 l/m 0 min 0 min 0,0 UV-I 146 W/m 7,7 km/h (2 Bft)
26.02.2014 11:20 8,4 C 7,2 C 90 % 1015,5 hPa 0,0 l/m 0 min 0 min 0,0 UV-I 151 W/m 0,0 km/h (0 Bft)
26.02.2014 11:22 8,5 C 7,2 C 90 % 1015,5 hPa 0,0 l/m 0 min 0 min 0,0 UV-I 156 W/m 0,0 km/h (0 Bft)
26.02.2014 11:24 8,6 C 7,2 C 90 % 1015,5 hPa 0,0 l/m 0 min 0 min 0,0 UV-I 160 W/m 5,1 km/h (1 Bft)
26.02.2014 11:26 8,6 C 7,2 C 90 % 1015,5 hPa 0,0 l/m 0 min 0 min 0,0 UV-I 174 W/m 0,0 km/h (0 Bft)
26.02.2014 11:28 8,6 C 7,2 C 90 % 1015,6 hPa 0,0 l/m 0 min 0 min 0,0 UV-I 190 W/m 0,0 km/h (0 Bft)
26.02.2014 11:30 8,7 C 7,8 C 90 % 1015,6 hPa 0,0 l/m 0 min 0 min 0,0 UV-I 202 W/m 0,0 km/h (0 Bft)
26.02.2014 11:32 8,8 C 7,8 C 90 % 1015,6 hPa 0,0 l/m 0 min 0 min 0,0 UV-I 214 W/m 12,9 km/h (3 Bft)
26.02.2014 11:34 8,8 C 7,8 C 90 % 1015,6 hPa 0,0 l/m 0 min 0 min 0,0 UV-I 211 W/m 10,3 km/h (2 Bft)
26.02.2014 11:36 8,9 C 7,8 C 89 % 1015,6 hPa 0,0 l/m 0 min 0 min 0,0 UV-I 207 W/m 10,3 km/h (2 Bft)
26.02.2014 11:38 8,9 C 7,2 C 89 % 1015,7 hPa 0,0 l/m 0 min 0 min 0,0 UV-I 202 W/m 7,7 km/h (2 Bft)
26.02.2014 11:40 8,9 C 7,2 C 88 % 1015,7 hPa 0,0 l/m 0 min 0 min 0,0 UV-I 202 W/m 7,7 km/h (2 Bft)
26.02.2014 11:42 9,0 C 7,8 C 88 % 1015,7 hPa 0,0 l/m 0 min 0 min 0,0 UV-I 202 W/m 0,0 km/h (0 Bft)
26.02.2014 11:44 9,1 C 7,8 C 88 % 1015,7 hPa 0,0 l/m 0 min 0 min 0,0 UV-I 209 W/m 10,3 km/h (2 Bft)
26.02.2014 11:46 9,1 C 7,8 C 88 % 1015,7 hPa 0,0 l/m 0 min 0 min 0,0 UV-I 211 W/m 0,0 km/h (0 Bft)
26.02.2014 11:48 9,1 C 7,8 C 88 % 1015,7 hPa 0,0 l/m 0 min 0 min 0,0 UV-I 216 W/m 7,7 km/h (2 Bft)
26.02.2014 11:50 9,1 C 7,8 C 87 % 1015,8 hPa 0,0 l/m 0 min 0 min 0,0 UV-I 225 W/m 7,7 km/h (2 Bft)
26.02.2014 11:52 9,1 C 7,2 C 86 % 1015,8 hPa 0,0 l/m 0 min 0 min 0,0 UV-I 234 W/m 12,9 km/h (3 Bft)
26.02.2014 11:54 9,1 C 7,8 C 86 % 1015,8 hPa 0,0 l/m 0 min 0 min 0,0 UV-I 229 W/m 5,1 km/h (1 Bft)
26.02.2014 11:56 9,1 C 7,2 C 86 % 1015,8 hPa 0,0 l/m 0 min 0 min 0,0 UV-I 232 W/m 18,0 km/h (3 Bft)
26.02.2014 11:58 9,1 C 7,2 C 85 % 1015,8 hPa 0,0 l/m 0 min 0 min 0,0 UV-I 243 W/m 18,0 km/h (3 Bft)
26.02.2014 12:00 9,1 C 7,2 C 86 % 1015,8 hPa 0,0 l/m 0 min 0 min 0,0 UV-I 227 W/m 12,9 km/h (3 Bft)
26.02.2014 12:02 9,1 C 7,2 C 85 % 1015,8 hPa 0,0 l/m 0 min 0 min 0,0 UV-I 221 W/m 7,7 km/h (2 Bft)
26.02.2014 12:04 9,1 C 7,2 C 85 % 1015,8 hPa 0,0 l/m 0 min 0 min 0,0 UV-I 232 W/m 12,9 km/h (3 Bft)
26.02.2014 12:06 9,2 C 7,2 C 85 % 1015,8 hPa 0,0 l/m 0 min 0 min 0,0 UV-I 227 W/m 5,1 km/h (1 Bft)
26.02.2014 12:08 9,2 C 7,2 C 85 % 1015,8 hPa 0,0 l/m 0 min 0 min 0,0 UV-I 218 W/m 10,3 km/h (2 Bft)
26.02.2014 12:10 9,2 C 7,2 C 85 % 1015,9 hPa 0,0 l/m 0 min 0 min 0,0 UV-I 218 W/m 15,4 km/h (3 Bft)
26.02.2014 12:12 9,2 C 7,8 C 85 % 1015,9 hPa 0,0 l/m 0 min 0 min 0,0 UV-I 218 W/m 15,4 km/h (3 Bft)
26.02.2014 12:14 9,2 C 7,8 C 85 % 1015,8 hPa 0,0 l/m 0 min 0 min 0,0 UV-I 229 W/m 2,6 km/h (1 Bft)
26.02.2014 12:16 9,3 C 7,8 C 85 % 1015,9 hPa 0,0 l/m 0 min 0 min 0,0 UV-I 239 W/m 5,1 km/h (1 Bft)
26.02.2014 12:18 9,3 C 7,8 C 85 % 1015,8 hPa 0,0 l/m 0 min 0 min 0,0 UV-I 276 W/m 7,7 km/h (2 Bft)
26.02.2014 12:20 9,4 C 8,3 C 85 % 1015,9 hPa 0,0 l/m 2 min 0 min 0,0 UV-I 308 W/m 10,3 km/h (2 Bft)
26.02.2014 12:22 9,5 C 8,3 C 84 % 1015,8 hPa 0,0 l/m 2 min 0 min 0,0 UV-I 410 W/m 7,7 km/h (2 Bft)
26.02.2014 12:24 9,8 C 8,9 C 84 % 1015,8 hPa 0,0 l/m 2 min 0 min 0,0 UV-I 480 W/m 2,6 km/h (1 Bft)
26.02.2014 12:26 10,1 C 8,9 C 85 % 1015,9 hPa 0,0 l/m 0 min 0 min 0,0 UV-I 244 W/m 12,9 km/h (3 Bft)
26.02.2014 12:28 10,2 C 8,9 C 82 % 1015,9 hPa 0,0 l/m 2 min 0 min 0,0 UV-I 380 W/m 2,6 km/h (1 Bft)
26.02.2014 12:30 10,3 C 8,9 C 82 % 1015,8 hPa 0,0 l/m 2 min 0 min 0,0 UV-I 378 W/m 2,6 km/h (1 Bft)
26.02.2014 12:32 10,3 C 8,9 C 81 % 1015,9 hPa 0,0 l/m 2 min 0 min 0,0 UV-I 381 W/m 5,1 km/h (1 Bft)
26.02.2014 12:34 10,3 C 8,9 C 81 % 1015,9 hPa 0,0 l/m 2 min 0 min 0,0 UV-I 410 W/m 2,6 km/h (1 Bft)
26.02.2014 12:36 10,3 C 8,9 C 80 % 1015,9 hPa 0,0 l/m 2 min 0 min 0,0 UV-I 425 W/m 12,9 km/h (3 Bft)
26.02.2014 12:38 10,4 C 8,9 C 80 % 1015,9 hPa 0,0 l/m 2 min 0 min 0,0 UV-I 424 W/m 10,3 km/h (2 Bft)
26.02.2014 12:40 10,4 C 9,4 C 79 % 1015,9 hPa 0,0 l/m 2 min 0 min 0,0 UV-I 374 W/m 10,3 km/h (2 Bft)
26.02.2014 12:42 10,3 C 9,4 C 78 % 1015,9 hPa 0,0 l/m 2 min 0 min 0,0 UV-I 448 W/m 10,3 km/h (2 Bft)
26.02.2014 12:44 10,4 C 9,4 C 79 % 1015,9 hPa 0,0 l/m 2 min 0 min 0,5 UV-I 459 W/m 2,6 km/h (1 Bft)
26.02.2014 12:46 10,6 C 9,4 C 79 % 1015,9 hPa 0,0 l/m 2 min 0 min 0,5 UV-I 439 W/m 7,7 km/h (2 Bft)
26.02.2014 12:48 10,6 C 9,4 C 79 % 1015,9 hPa 0,0 l/m 2 min 0 min 0,5 UV-I 454 W/m 7,7 km/h (2 Bft)
26.02.2014 12:50 10,6 C 9,4 C 79 % 1015,9 hPa 0,0 l/m 0 min 0 min 0,0 UV-I 236 W/m 10,3 km/h (2 Bft)
26.02.2014 12:52 10,6 C 9,4 C 79 % 1015,9 hPa 0,0 l/m 2 min 0 min 0,0 UV-I 385 W/m 12,9 km/h (3 Bft)
26.02.2014 12:54 10,7 C 9,4 C 79 % 1015,9 hPa 0,0 l/m 2 min 0 min 0,0 UV-I 441 W/m 2,6 km/h (1 Bft)
26.02.2014 12:56 10,7 C 10,0 C 79 % 1015,9 hPa 0,0 l/m 0 min 0 min 0,0 UV-I 232 W/m 0,0 km/h (0 Bft)
26.02.2014 12:58 10,7 C 9,4 C 78 % 1015,9 hPa 0,0 l/m 2 min 0 min 0,0 UV-I 313 W/m 2,6 km/h (1 Bft)
26.02.2014 13:00 10,7 C 10,0 C 79 % 1015,9 hPa 0,0 l/m 2 min 0 min 0,0 UV-I 346 W/m 5,1 km/h (1 Bft)
26.02.2014 13:02 10,7 C 10,0 C 78 % 1015,9 hPa 0,0 l/m 2 min 0 min 0,0 UV-I 457 W/m 2,6 km/h (1 Bft)
26.02.2014 13:04 10,8 C 10,0 C 78 % 1015,9 hPa 0,0 l/m 2 min 0 min 0,6 UV-I 327 W/m 2,6 km/h (1 Bft)
26.02.2014 13:06 10,9 C 10,0 C 78 % 1015,9 hPa 0,0 l/m 2 min 0 min 0,5 UV-I 315 W/m 5,1 km/h (1 Bft)
26.02.2014 13:08 10,9 C 10,0 C 77 % 1016,0 hPa 0,0 l/m 2 min 0 min 0,0 UV-I 292 W/m 2,6 km/h (1 Bft)
26.02.2014 13:10 10,8 C 10,0 C 77 % 1016,0 hPa 0,0 l/m 2 min 0 min 0,7 UV-I 292 W/m 7,7 km/h (2 Bft)
26.02.2014 13:12 10,9 C 10,0 C 77 % 1016,0 hPa 0,0 l/m 2 min 0 min 0,0 UV-I 503 W/m 12,9 km/h (3 Bft)
26.02.2014 13:14 10,9 C 10,0 C 77 % 1015,9 hPa 0,0 l/m 2 min 0 min 0,0 UV-I 352 W/m 12,9 km/h (3 Bft)
26.02.2014 13:16 10,9 C 10,0 C 76 % 1015,9 hPa 0,0 l/m 2 min 0 min 0,0 UV-I 281 W/m 10,3 km/h (2 Bft)
26.02.2014 13:18 10,9 C 10,0 C 75 % 1015,9 hPa 0,0 l/m 2 min 0 min 0,0 UV-I 323 W/m 12,9 km/h (3 Bft)
26.02.2014 13:20 10,9 C 10,0 C 75 % 1016,0 hPa 0,0 l/m 2 min 0 min 0,0 UV-I 287 W/m 7,7 km/h (2 Bft)
26.02.2014 13:22 10,8 C 10,0 C 75 % 1015,9 hPa 0,0 l/m 0 min 0 min 0,0 UV-I 234 W/m 15,4 km/h (3 Bft)
26.02.2014 13:24 10,7 C 10,0 C 76 % 1015,9 hPa 0,0 l/m 0 min 0 min 0,0 UV-I 172 W/m 10,3 km/h (2 Bft)
26.02.2014 13:26 10,7 C 9,4 C 77 % 1015,9 hPa 0,0 l/m 0 min 0 min 0,0 UV-I 158 W/m 5,1 km/h (1 Bft)
26.02.2014 13:28 10,6 C 9,4 C 77 % 1015,9 hPa 0,0 l/m 0 min 0 min 0,0 UV-I 158 W/m 2,6 km/h (1 Bft)
26.02.2014 13:30 10,5 C 9,4 C 78 % 1015,9 hPa 0,0 l/m 0 min 0 min 0,0 UV-I 163 W/m 0,0 km/h (0 Bft)
26.02.2014 13:32 10,4 C 9,4 C 78 % 1015,9 hPa 0,0 l/m 0 min 0 min 0,0 UV-I 172 W/m 0,0 km/h (0 Bft)
26.02.2014 13:34 10,4 C 9,4 C 78 % 1015,9 hPa 0,0 l/m 0 min 0 min 0,5 UV-I 213 W/m 5,1 km/h (1 Bft)
26.02.2014 13:36 10,4 C 9,4 C 78 % 1015,9 hPa 0,0 l/m 2 min 0 min 0,5 UV-I 424 W/m 7,7 km/h (2 Bft)
26.02.2014 13:38 10,6 C 9,4 C 78 % 1015,9 hPa 0,0 l/m 2 min 0 min 0,5 UV-I 385 W/m 7,7 km/h (2 Bft)
26.02.2014 13:40 10,7 C 10,0 C 78 % 1015,9 hPa 0,0 l/m 2 min 0 min 0,5 UV-I 367 W/m 2,6 km/h (1 Bft)
26.02.2014 13:42 10,8 C 10,0 C 78 % 1015,9 hPa 0,0 l/m 2 min 0 min 0,0 UV-I 339 W/m 0,0 km/h (0 Bft)
26.02.2014 13:44 10,8 C 9,4 C 77 % 1015,9 hPa 0,0 l/m 0 min 0 min 0,0 UV-I 130 W/m 7,7 km/h (2 Bft)
26.02.2014 13:46 10,7 C 9,4 C 77 % 1015,8 hPa 0,0 l/m 0 min 0 min 0,0 UV-I 114 W/m 7,7 km/h (2 Bft)
26.02.2014 13:48 10,6 C 9,4 C 77 % 1015,9 hPa 0,0 l/m 0 min 0 min 0,0 UV-I 137 W/m 5,1 km/h (1 Bft)
26.02.2014 13:50 10,5 C 9,4 C 78 % 1015,9 hPa 0,0 l/m 0 min 0 min 0,0 UV-I 137 W/m 2,6 km/h (1 Bft)
26.02.2014 13:52 10,4 C 9,4 C 77 % 1015,9 hPa 0,0 l/m 0 min 0 min 0,5 UV-I 151 W/m 0,0 km/h (0 Bft)
26.02.2014 13:54 10,6 C 9,4 C 78 % 1015,9 hPa 0,0 l/m 0 min 0 min 0,0 UV-I 176 W/m 0,0 km/h (0 Bft)
26.02.2014 13:56 10,6 C 9,4 C 77 % 1015,9 hPa 0,0 l/m 0 min 0 min 0,0 UV-I 114 W/m 2,6 km/h (1 Bft)
26.02.2014 13:58 10,6 C 9,4 C 77 % 1016,0 hPa 0,0 l/m 0 min 0 min 0,0 UV-I 105 W/m 2,6 km/h (1 Bft)
26.02.2014 14:00 10,5 C 9,4 C 77 % 1015,9 hPa 0,0 l/m 0 min 0 min 0,0 UV-I 121 W/m 0,0 km/h (0 Bft)
26.02.2014 14:02 10,5 C 9,4 C 78 % 1016,0 hPa 0,0 l/m 0 min 0 min 0,0 UV-I 181 W/m 7,7 km/h (2 Bft)
26.02.2014 14:04 10,6 C 9,4 C 77 % 1016,0 hPa 0,0 l/m 0 min 0 min 0,0 UV-I 195 W/m 10,3 km/h (2 Bft)
26.02.2014 14:06 10,7 C 9,4 C 77 % 1016,0 hPa 0,0 l/m 0 min 0 min 0,0 UV-I 192 W/m 5,1 km/h (1 Bft)
26.02.2014 14:08 10,8 C 9,4 C 76 % 1015,9 hPa 0,0 l/m 0 min 0 min 0,0 UV-I 139 W/m 12,9 km/h (3 Bft)
26.02.2014 14:10 10,8 C 9,4 C 76 % 1016,0 hPa 0,0 l/m 0 min 0 min 0,0 UV-I 123 W/m 12,9 km/h (3 Bft)
26.02.2014 14:12 10,7 C 9,4 C 75 % 1016,1 hPa 0,0 l/m 0 min 0 min 0,0 UV-I 130 W/m 5,1 km/h (1 Bft)
26.02.2014 14:14 10,7 C 9,4 C 76 % 1016,0 hPa 0,0 l/m 2 min 0 min 0,5 UV-I 459 W/m 5,1 km/h (1 Bft)
26.02.2014 14:16 10,8 C 10,0 C 75 % 1016,0 hPa 0,0 l/m 2 min 0 min 0,5 UV-I 448 W/m 12,9 km/h (3 Bft)
26.02.2014 14:18 10,9 C 10,0 C 75 % 1016,0 hPa 0,0 l/m 2 min 0 min 0,5 UV-I 469 W/m 20,6 km/h (4 Bft)
26.02.2014 14:20 11,1 C 10,0 C 73 % 1016,1 hPa 0,0 l/m 2 min 0 min 0,5 UV-I 471 W/m 12,9 km/h (3 Bft)
26.02.2014 14:22 11,3 C 10,6 C 72 % 1016,0 hPa 0,0 l/m 2 min 0 min 0,5 UV-I 469 W/m 7,7 km/h (2 Bft)
26.02.2014 14:24 11,4 C 10,6 C 71 % 1016,1 hPa 0,0 l/m 2 min 0 min 0,5 UV-I 466 W/m 7,7 km/h (2 Bft)
26.02.2014 14:26 11,5 C 10,0 C 71 % 1016,1 hPa 0,0 l/m 2 min 0 min 0,5 UV-I 436 W/m 15,4 km/h (3 Bft)
26.02.2014 14:28 11,6 C 10,0 C 71 % 1016,1 hPa 0,0 l/m 2 min 0 min 0,5 UV-I 439 W/m 10,3 km/h (2 Bft)
26.02.2014 14:30 11,6 C 10,0 C 71 % 1016,0 hPa 0,0 l/m 2 min 0 min 0,0 UV-I 396 W/m 15,4 km/h (3 Bft)
26.02.2014 14:32 11,7 C 10,6 C 70 % 1016,0 hPa 0,0 l/m 2 min 0 min 0,0 UV-I 445 W/m 12,9 km/h (3 Bft)
26.02.2014 14:34 11,7 C 10,6 C 71 % 1016,0 hPa 0,0 l/m 2 min 0 min 0,0 UV-I 427 W/m 12,9 km/h (3 Bft)
26.02.2014 14:36 11,8 C 10,6 C 71 % 1016,0 hPa 0,0 l/m 2 min 0 min 0,0 UV-I 383 W/m 10,3 km/h (2 Bft)
26.02.2014 14:38 11,8 C 10,6 C 71 % 1016,0 hPa 0,0 l/m 2 min 0 min 0,0 UV-I 255 W/m 10,3 km/h (2 Bft)
26.02.2014 14:40 11,7 C 10,6 C 71 % 1016,0 hPa 0,0 l/m 2 min 0 min 0,0 UV-I 350 W/m 10,3 km/h (2 Bft)
26.02.2014 14:42 11,6 C 10,0 C 71 % 1016,1 hPa 0,0 l/m 2 min 0 min 0,0 UV-I 253 W/m 7,7 km/h (2 Bft)
26.02.2014 14:44 11,6 C 10,0 C 70 % 1016,0 hPa 0,0 l/m 0 min 0 min 0,0 UV-I 220 W/m 7,7 km/h (2 Bft)
26.02.2014 14:46 11,4 C 10,0 C 69 % 1016,0 hPa 0,0 l/m 2 min 0 min 0,0 UV-I 272 W/m 10,3 km/h (2 Bft)
26.02.2014 14:48 11,2 C 10,0 C 70 % 1016,0 hPa 0,0 l/m 0 min 0 min 0,0 UV-I 179 W/m 7,7 km/h (2 Bft)
26.02.2014 14:50 11,2 C 10,0 C 70 % 1016,0 hPa 0,0 l/m 0 min 0 min 0,0 UV-I 165 W/m 10,3 km/h (2 Bft)
26.02.2014 14:52 11,0 C 9,4 C 71 % 1016,1 hPa 0,0 l/m 0 min 0 min 0,0 UV-I 183 W/m 15,4 km/h (3 Bft)
26.02.2014 14:54 10,9 C 9,4 C 71 % 1016,0 hPa 0,0 l/m 2 min 0 min 0,0 UV-I 248 W/m 5,1 km/h (1 Bft)
26.02.2014 14:56 11,0 C 10,0 C 71 % 1016,0 hPa 0,0 l/m 2 min 0 min 0,0 UV-I 336 W/m 5,1 km/h (1 Bft)
26.02.2014 14:58 11,1 C 10,0 C 72 % 1016,1 hPa 0,0 l/m 2 min 0 min 0,0 UV-I 350 W/m 12,9 km/h (3 Bft)
26.02.2014 15:00 11,3 C 10,0 C 70 % 1016,0 hPa 0,0 l/m 2 min 0 min 0,0 UV-I 260 W/m 12,9 km/h (3 Bft)
26.02.2014 15:02 11,3 C 10,0 C 69 % 1016,1 hPa 0,0 l/m 2 min 0 min 0,0 UV-I 290 W/m 2,6 km/h (1 Bft)
26.02.2014 15:04 11,3 C 10,0 C 69 % 1016,1 hPa 0,0 l/m 0 min 0 min 0,0 UV-I 216 W/m 5,1 km/h (1 Bft)
26.02.2014 15:06 11,4 C 10,0 C 69 % 1016,0 hPa 0,0 l/m 0 min 0 min 0,0 UV-I 193 W/m 5,1 km/h (1 Bft)
26.02.2014 15:08 11,3 C 10,0 C 67 % 1016,1 hPa 0,0 l/m 0 min 0 min 0,0 UV-I 181 W/m 5,1 km/h (1 Bft)
26.02.2014 15:10 11,2 C 10,0 C 68 % 1016,0 hPa 0,0 l/m 0 min 0 min 0,0 UV-I 209 W/m 10,3 km/h (2 Bft)
26.02.2014 15:12 11,2 C 10,0 C 68 % 1016,1 hPa 0,0 l/m 2 min 0 min 0,0 UV-I 220 W/m 2,6 km/h (1 Bft)
26.02.2014 15:14 11,2 C 10,0 C 69 % 1016,0 hPa 0,0 l/m 2 min 0 min 0,0 UV-I 267 W/m 10,3 km/h (2 Bft)
26.02.2014 15:16 11,3 C 10,0 C 70 % 1016,1 hPa 0,0 l/m 2 min 0 min 0,0 UV-I 329 W/m 12,9 km/h (3 Bft)
26.02.2014 15:18 11,4 C 10,0 C 69 % 1016,1 hPa 0,0 l/m 2 min 0 min 0,0 UV-I 320 W/m 10,3 km/h (2 Bft)
26.02.2014 15:20 11,5 C 10,0 C 69 % 1016,1 hPa 0,0 l/m 2 min 0 min 0,0 UV-I 415 W/m 7,7 km/h (2 Bft)
26.02.2014 15:22 11,7 C 10,6 C 69 % 1016,1 hPa 0,0 l/m 2 min 0 min 0,0 UV-I 417 W/m 10,3 km/h (2 Bft)
26.02.2014 15:24 11,8 C 10,6 C 69 % 1016,1 hPa 0,0 l/m 2 min 0 min 0,0 UV-I 411 W/m 5,1 km/h (1 Bft)
26.02.2014 15:26 11,8 C 10,6 C 68 % 1016,1 hPa 0,0 l/m 0 min 0 min 0,0 UV-I 190 W/m 5,1 km/h (1 Bft)
26.02.2014 15:28 11,7 C 10,0 C 67 % 1016,1 hPa 0,0 l/m 0 min 0 min 0,0 UV-I 105 W/m 10,3 km/h (2 Bft)
26.02.2014 15:30 11,4 C 10,0 C 68 % 1016,0 hPa 0,0 l/m 0 min 0 min 0,0 UV-I 98 W/m 2,6 km/h (1 Bft)
26.02.2014 15:32 11,3 C 9,4 C 68 % 1015,9 hPa 0,0 l/m 0 min 0 min 0,0 UV-I 97 W/m 15,4 km/h (3 Bft)
26.02.2014 15:34 11,1 C 9,4 C 68 % 1016,0 hPa 0,0 l/m 0 min 0 min 0,0 UV-I 113 W/m 5,1 km/h (1 Bft)
26.02.2014 15:36 11,1 C 9,4 C 69 % 1016,1 hPa 0,0 l/m 0 min 0 min 0,0 UV-I 113 W/m 0,0 km/h (0 Bft)
26.02.2014 15:38 11,0 C 9,4 C 69 % 1015,9 hPa 0,0 l/m 2 min 0 min 0,0 UV-I 299 W/m 15,4 km/h (3 Bft)
26.02.2014 15:40 11,1 C 9,4 C 69 % 1015,9 hPa 0,0 l/m 2 min 0 min 0,0 UV-I 315 W/m 5,1 km/h (1 Bft)
26.02.2014 15:42 11,2 C 10,0 C 70 % 1016,0 hPa 0,0 l/m 2 min 0 min 0,0 UV-I 339 W/m 7,7 km/h (2 Bft)
26.02.2014 15:44 11,4 C 10,0 C 70 % 1016,1 hPa 0,0 l/m 2 min 0 min 0,0 UV-I 346 W/m 7,7 km/h (2 Bft)
26.02.2014 15:46 11,6 C 10,0 C 69 % 1016,1 hPa 0,0 l/m 2 min 0 min 0,0 UV-I 329 W/m 2,6 km/h (1 Bft)
26.02.2014 15:48 11,7 C 10,6 C 69 % 1016,0 hPa 0,0 l/m 2 min 0 min 0,0 UV-I 327 W/m 2,6 km/h (1 Bft)
26.02.2014 15:50 11,8 C 10,6 C 68 % 1016,1 hPa 0,0 l/m 2 min 0 min 0,0 UV-I 313 W/m 7,7 km/h (2 Bft)
26.02.2014 15:52 11,7 C 10,0 C 67 % 1016,1 hPa 0,0 l/m 2 min 0 min 0,0 UV-I 313 W/m 12,9 km/h (3 Bft)
26.02.2014 15:54 11,6 C 10,0 C 66 % 1016,1 hPa 0,0 l/m 0 min 0 min 0,0 UV-I 134 W/m 7,7 km/h (2 Bft)
26.02.2014 15:56 11,4 C 10,0 C 67 % 1016,1 hPa 0,0 l/m 2 min 0 min 0,0 UV-I 301 W/m 2,6 km/h (1 Bft)
26.02.2014 15:58 11,4 C 10,0 C 68 % 1016,1 hPa 0,0 l/m 0 min 0 min 0,0 UV-I 162 W/m 7,7 km/h (2 Bft)
26.02.2014 16:00 11,5 C 10,0 C 67 % 1016,1 hPa 0,0 l/m 2 min 0 min 0,0 UV-I 165 W/m 5,1 km/h (1 Bft)
26.02.2014 16:02 11,6 C 10,6 C 68 % 1016,2 hPa 0,0 l/m 2 min 0 min 0,0 UV-I 174 W/m 12,9 km/h (3 Bft)
26.02.2014 16:04 11,6 C 10,6 C 68 % 1016,1 hPa 0,0 l/m 2 min 0 min 0,0 UV-I 311 W/m 7,7 km/h (2 Bft)
26.02.2014 16:06 11,6 C 10,6 C 69 % 1016,1 hPa 0,0 l/m 2 min 0 min 0,0 UV-I 250 W/m 5,1 km/h (1 Bft)
26.02.2014 16:08 11,7 C 10,6 C 69 % 1016,1 hPa 0,0 l/m 2 min 0 min 0,0 UV-I 162 W/m 10,3 km/h (2 Bft)
26.02.2014 16:10 11,7 C 10,0 C 68 % 1016,2 hPa 0,0 l/m 2 min 0 min 0,0 UV-I 192 W/m 12,9 km/h (3 Bft)
26.02.2014 16:12 11,6 C 10,0 C 69 % 1016,3 hPa 0,0 l/m 0 min 0 min 0,0 UV-I 125 W/m 7,7 km/h (2 Bft)
26.02.2014 16:14 11,6 C 10,0 C 68 % 1016,2 hPa 0,0 l/m 2 min 0 min 0,0 UV-I 153 W/m 15,4 km/h (3 Bft)
26.02.2014 16:16 11,4 C 10,0 C 67 % 1016,2 hPa 0,0 l/m 2 min 0 min 0,0 UV-I 153 W/m 7,7 km/h (2 Bft)
26.02.2014 16:18 11,4 C 10,0 C 68 % 1016,3 hPa 0,0 l/m 2 min 0 min 0,0 UV-I 181 W/m 15,4 km/h (3 Bft)
26.02.2014 16:20 11,5 C 10,0 C 68 % 1016,3 hPa 0,0 l/m 2 min 0 min 0,0 UV-I 309 W/m 2,6 km/h (1 Bft)
26.02.2014 16:22 11,5 C 10,0 C 67 % 1016,3 hPa 0,0 l/m 2 min 0 min 0,0 UV-I 221 W/m 5,1 km/h (1 Bft)
26.02.2014 16:24 11,4 C 10,0 C 67 % 1016,3 hPa 0,0 l/m 2 min 0 min 0,0 UV-I 246 W/m 15,4 km/h (3 Bft)
26.02.2014 16:26 11,3 C 10,0 C 68 % 1016,3 hPa 0,0 l/m 2 min 0 min 0,0 UV-I 223 W/m 12,9 km/h (3 Bft)
26.02.2014 16:28 11,3 C 10,0 C 69 % 1016,3 hPa 0,0 l/m 2 min 0 min 0,0 UV-I 209 W/m 15,4 km/h (3 Bft)
26.02.2014 16:30 11,3 C 9,4 C 67 % 1016,3 hPa 0,0 l/m 2 min 0 min 0,0 UV-I 209 W/m 15,4 km/h (3 Bft)
26.02.2014 16:32 11,3 C 9,4 C 69 % 1016,3 hPa 0,0 l/m 2 min 0 min 0,0 UV-I 204 W/m 7,7 km/h (2 Bft)
26.02.2014 16:34 11,2 C 9,4 C 69 % 1016,3 hPa 0,0 l/m 2 min 0 min 0,0 UV-I 202 W/m 10,3 km/h (2 Bft)
26.02.2014 16:36 11,2 C 9,4 C 70 % 1016,4 hPa 0,0 l/m 2 min 0 min 0,0 UV-I 197 W/m 0,0 km/h (0 Bft)
26.02.2014 16:38 11,1 C 9,4 C 69 % 1016,4 hPa 0,0 l/m 2 min 0 min 0,0 UV-I 183 W/m 12,9 km/h (3 Bft)
26.02.2014 16:40 11,0 C 9,4 C 68 % 1016,5 hPa 0,0 l/m 2 min 0 min 0,0 UV-I 134 W/m 10,3 km/h (2 Bft)
26.02.2014 16:42 10,9 C 9,4 C 68 % 1016,5 hPa 0,0 l/m 0 min 0 min 0,0 UV-I 76 W/m 12,9 km/h (3 Bft)
26.02.2014 16:44 10,8 C 8,9 C 68 % 1016,5 hPa 0,0 l/m 0 min 0 min 0,0 UV-I 54 W/m 10,3 km/h (2 Bft)
26.02.2014 16:46 10,7 C 8,9 C 67 % 1016,5 hPa 0,0 l/m 0 min 0 min 0,0 UV-I 56 W/m 10,3 km/h (2 Bft)
26.02.2014 16:48 10,7 C 8,9 C 68 % 1016,6 hPa 0,0 l/m 0 min 0 min 0,0 UV-I 56 W/m 18,0 km/h (3 Bft)
26.02.2014 16:50 10,6 C 8,9 C 68 % 1016,6 hPa 0,0 l/m 0 min 0 min 0,0 UV-I 72 W/m 10,3 km/h (2 Bft)
26.02.2014 16:52 10,6 C 8,9 C 69 % 1016,6 hPa 0,0 l/m 2 min 0 min 0,0 UV-I 111 W/m 15,4 km/h (3 Bft)
26.02.2014 16:54 10,5 C 8,9 C 68 % 1016,6 hPa 0,0 l/m 0 min 0 min 0,0 UV-I 65 W/m 18,0 km/h (3 Bft)
26.02.2014 16:56 10,4 C 8,9 C 69 % 1016,7 hPa 0,0 l/m 2 min 0 min 0,0 UV-I 114 W/m 15,4 km/h (3 Bft)
26.02.2014 16:58 10,4 C 8,3 C 68 % 1016,7 hPa 0,0 l/m 2 min 0 min 0,0 UV-I 105 W/m 10,3 km/h (2 Bft)
26.02.2014 17:00 10,4 C 8,3 C 68 % 1016,7 hPa 0,0 l/m 0 min 0 min 0,0 UV-I 84 W/m 0,0 km/h (0 Bft)
26.02.2014 17:02 10,4 C 8,3 C 69 % 1016,7 hPa 0,0 l/m 2 min 0 min 0,0 UV-I 100 W/m 5,1 km/h (1 Bft)
26.02.2014 17:04 10,3 C 8,3 C 69 % 1016,7 hPa 0,0 l/m 0 min 0 min 0,0 UV-I 65 W/m 0,0 km/h (0 Bft)
26.02.2014 17:06 10,2 C 8,3 C 70 % 1016,7 hPa 0,0 l/m 0 min 0 min 0,0 UV-I 40 W/m 5,1 km/h (1 Bft)
26.02.2014 17:08 10,2 C 8,3 C 70 % 1016,8 hPa 0,0 l/m 0 min 0 min 0,0 UV-I 40 W/m 15,4 km/h (3 Bft)
26.02.2014 17:10 10,2 C 8,3 C 70 % 1016,8 hPa 0,0 l/m 0 min 0 min 0,0 UV-I 39 W/m 20,6 km/h (4 Bft)
26.02.2014 17:12 10,1 C 8,3 C 70 % 1016,8 hPa 0,0 l/m 0 min 0 min 0,0 UV-I 39 W/m 12,9 km/h (3 Bft)
26.02.2014 17:14 10,1 C 8,3 C 70 % 1016,8 hPa 0,0 l/m 0 min 0 min 0,0 UV-I 37 W/m 10,3 km/h (2 Bft)
26.02.2014 17:16 10,0 C 8,3 C 70 % 1016,8 hPa 0,0 l/m 0 min 0 min 0,0 UV-I 35 W/m 10,3 km/h (2 Bft)
26.02.2014 17:18 9,9 C 8,3 C 70 % 1016,9 hPa 0,0 l/m 0 min 0 min 0,0 UV-I 33 W/m 5,1 km/h (1 Bft)
26.02.2014 17:20 9,9 C 8,3 C 70 % 1017,0 hPa 0,0 l/m 0 min 0 min 0,0 UV-I 32 W/m 2,6 km/h (1 Bft)
26.02.2014 17:22 9,9 C 8,3 C 71 % 1017,0 hPa 0,0 l/m 0 min 0 min 0,0 UV-I 30 W/m 0,0 km/h (0 Bft)
26.02.2014 17:24 9,9 C 7,8 C 71 % 1017,0 hPa 0,0 l/m 0 min 0 min 0,0 UV-I 28 W/m 0,0 km/h (0 Bft)
26.02.2014 17:26 9,8 C 7,8 C 72 % 1017,0 hPa 0,0 l/m 0 min 0 min 0,0 UV-I 28 W/m 2,6 km/h (1 Bft)
26.02.2014 17:28 9,7 C 7,8 C 72 % 1017,0 hPa 0,0 l/m 0 min 0 min 0,0 UV-I 28 W/m 7,7 km/h (2 Bft)
26.02.2014 17:30 9,7 C 7,8 C 71 % 1017,0 hPa 0,0 l/m 0 min 0 min 0,0 UV-I 23 W/m 12,9 km/h (3 Bft)
26.02.2014 17:32 9,7 C 7,8 C 70 % 1017,0 hPa 0,0 l/m 0 min 0 min 0,0 UV-I 26 W/m 7,7 km/h (2 Bft)
26.02.2014 17:34 9,6 C 7,8 C 71 % 1017,0 hPa 0,0 l/m 0 min 0 min 0,0 UV-I 26 W/m 0,0 km/h (0 Bft)
26.02.2014 17:36 9,6 C 7,8 C 72 % 1017,0 hPa 0,0 l/m 0 min 0 min 0,0 UV-I 26 W/m 0,0 km/h (0 Bft)
26.02.2014 17:38 9,5 C 7,2 C 72 % 1017,0 hPa 0,0 l/m 0 min 0 min 0,0 UV-I 25 W/m 0,0 km/h (0 Bft)
26.02.2014 17:40 9,4 C 7,2 C 72 % 1017,0 hPa 0,0 l/m 0 min 0 min 0,0 UV-I 25 W/m 0,0 km/h (0 Bft)
26.02.2014 17:42 9,4 C 7,2 C 73 % 1017,0 hPa 0,0 l/m 0 min 0 min 0,0 UV-I 23 W/m 0,0 km/h (0 Bft)
26.02.2014 17:44 9,3 C 7,2 C 73 % 1017,1 hPa 0,0 l/m 0 min 0 min 0,0 UV-I 21 W/m 0,0 km/h (0 Bft)
26.02.2014 17:46 9,2 C 7,2 C 73 % 1017,1 hPa 0,0 l/m 0 min 0 min 0,0 UV-I 21 W/m 0,0 km/h (0 Bft)
26.02.2014 17:48 9,2 C 7,2 C 73 % 1017,2 hPa 0,0 l/m 0 min 0 min 0,0 UV-I 19 W/m 2,6 km/h (1 Bft)
26.02.2014 17:50 9,2 C 7,2 C 73 % 1017,2 hPa 0,0 l/m 0 min 0 min 0,0 UV-I 18 W/m 0,0 km/h (0 Bft)
26.02.2014 17:52 9,1 C 6,7 C 73 % 1017,2 hPa 0,0 l/m 0 min 0 min 0,0 UV-I 16 W/m 0,0 km/h (0 Bft)
26.02.2014 17:54 9,1 C 6,7 C 73 % 1017,2 hPa 0,0 l/m 0 min 0 min 0,0 UV-I 14 W/m 0,0 km/h (0 Bft)
26.02.2014 17:56 9,1 C 6,7 C 73 % 1017,2 hPa 0,0 l/m 0 min 0 min 0,0 UV-I 12 W/m 0,0 km/h (0 Bft)
26.02.2014 17:58 9,0 C 6,7 C 73 % 1017,2 hPa 0,0 l/m 0 min 0 min 0,0 UV-I 11 W/m 0,0 km/h (0 Bft)
26.02.2014 18:00 8,9 C 6,7 C 74 % 1017,2 hPa 0,0 l/m 0 min 0 min 0,0 UV-I 11 W/m 0,0 km/h (0 Bft)
26.02.2014 18:02 8,8 C 6,7 C 74 % 1017,2 hPa 0,0 l/m 0 min 0 min 0,0 UV-I 9 W/m 0,0 km/h (0 Bft)
26.02.2014 18:04 8,7 C 6,1 C 75 % 1017,2 hPa 0,0 l/m 0 min 0 min 0,0 UV-I 9 W/m 0,0 km/h (0 Bft)
26.02.2014 18:06 8,7 C 6,1 C 75 % 1017,3 hPa 0,0 l/m 0 min 0 min 0,0 UV-I 7 W/m 0,0 km/h (0 Bft)
26.02.2014 18:08 8,6 C 6,1 C 75 % 1017,3 hPa 0,0 l/m 0 min 0 min 0,0 UV-I 7 W/m 0,0 km/h (0 Bft)
26.02.2014 18:10 8,5 C 5,6 C 76 % 1017,4 hPa 0,0 l/m 0 min 0 min 0,0 UV-I 5 W/m 0,0 km/h (0 Bft)
26.02.2014 18:12 8,4 C 5,6 C 76 % 1017,3 hPa 0,0 l/m 0 min 0 min 0,0 UV-I 5 W/m 0,0 km/h (0 Bft)
26.02.2014 18:14 8,3 C 5,6 C 76 % 1017,3 hPa 0,0 l/m 0 min 0 min 0,0 UV-I 5 W/m 0,0 km/h (0 Bft)
26.02.2014 18:16 8,3 C 5,6 C 76 % 1017,3 hPa 0,0 l/m 0 min 0 min 0,0 UV-I 0 W/m 0,0 km/h (0 Bft)
26.02.2014 18:18 8,3 C 5,6 C 76 % 1017,4 hPa 0,0 l/m 0 min 0 min 0,0 UV-I 0 W/m 0,0 km/h (0 Bft)
26.02.2014 18:20 8,2 C 5,6 C 76 % 1017,4 hPa 0,0 l/m 0 min 0 min 0,0 UV-I 0 W/m 0,0 km/h (0 Bft)
26.02.2014 18:22 8,2 C 5,0 C 77 % 1017,5 hPa 0,0 l/m 0 min 0 min 0,0 UV-I 0 W/m 0,0 km/h (0 Bft)
26.02.2014 18:24 8,1 C 5,0 C 77 % 1017,6 hPa 0,0 l/m 0 min 0 min 0,0 UV-I 0 W/m 0,0 km/h (0 Bft)
26.02.2014 18:26 8,0 C 5,0 C 77 % 1017,6 hPa 0,0 l/m 0 min 0 min 0,0 UV-I 0 W/m 0,0 km/h (0 Bft)
26.02.2014 18:28 7,9 C 5,0 C 78 % 1017,6 hPa 0,0 l/m 0 min 0 min 0,0 UV-I 0 W/m 0,0 km/h (0 Bft)
26.02.2014 18:30 7,7 C 5,0 C 78 % 1017,7 hPa 0,0 l/m 0 min 0 min 0,0 UV-I 0 W/m 0,0 km/h (0 Bft)
26.02.2014 18:32 7,6 C 4,4 C 79 % 1017,7 hPa 0,0 l/m 0 min 0 min 0,0 UV-I 0 W/m 0,0 km/h (0 Bft)
26.02.2014 18:34 7,4 C 4,4 C 79 % 1017,7 hPa 0,0 l/m 0 min 0 min 0,0 UV-I 0 W/m 0,0 km/h (0 Bft)
26.02.2014 18:36 7,3 C 4,4 C 80 % 1017,8 hPa 0,0 l/m 0 min 0 min 0,0 UV-I 0 W/m 0,0 km/h (0 Bft)
26.02.2014 18:38 7,2 C 4,4 C 80 % 1017,8 hPa 0,0 l/m 0 min 0 min 0,0 UV-I 0 W/m 0,0 km/h (0 Bft)
26.02.2014 18:40 7,1 C 4,4 C 81 % 1017,8 hPa 0,0 l/m 0 min 0 min 0,0 UV-I 0 W/m 0,0 km/h (0 Bft)
26.02.2014 18:42 7,0 C 4,4 C 81 % 1017,8 hPa 0,0 l/m 0 min 0 min 0,0 UV-I 0 W/m 0,0 km/h (0 Bft)
26.02.2014 18:44 6,9 C 4,4 C 82 % 1017,9 hPa 0,0 l/m 0 min 0 min 0,0 UV-I 0 W/m 0,0 km/h (0 Bft)
26.02.2014 18:46 6,8 C 4,4 C 82 % 1017,9 hPa 0,0 l/m 0 min 0 min 0,0 UV-I 0 W/m 0,0 km/h (0 Bft)
26.02.2014 18:48 6,8 C 3,9 C 82 % 1017,9 hPa 0,0 l/m 0 min 0 min 0,0 UV-I 0 W/m 0,0 km/h (0 Bft)
26.02.2014 18:50 6,7 C 3,9 C 83 % 1018,0 hPa 0,0 l/m 0 min 0 min 0,0 UV-I 0 W/m 0,0 km/h (0 Bft)
26.02.2014 18:52 6,7 C 3,9 C 83 % 1018,0 hPa 0,0 l/m 0 min 0 min 0,0 UV-I 0 W/m 0,0 km/h (0 Bft)
26.02.2014 18:54 6,6 C 3,9 C 83 % 1018,0 hPa 0,0 l/m 0 min 0 min 0,0 UV-I 0 W/m 0,0 km/h (0 Bft)
26.02.2014 18:56 6,5 C 3,9 C 83 % 1018,0 hPa 0,0 l/m 0 min 0 min 0,0 UV-I 0 W/m 0,0 km/h (0 Bft)
26.02.2014 18:58 6,4 C 3,9 C 83 % 1018,0 hPa 0,0 l/m 0 min 0 min 0,0 UV-I 0 W/m 0,0 km/h (0 Bft)
26.02.2014 19:00 6,4 C 3,9 C 83 % 1018,1 hPa 0,0 l/m 0 min 0 min 0,0 UV-I 0 W/m 0,0 km/h (0 Bft)
26.02.2014 19:02 6,3 C 3,9 C 84 % 1018,1 hPa 0,0 l/m 0 min 0 min 0,0 UV-I 0 W/m 0,0 km/h (0 Bft)
26.02.2014 19:04 6,3 C 3,9 C 84 % 1018,2 hPa 0,0 l/m 0 min 0 min 0,0 UV-I 0 W/m 0,0 km/h (0 Bft)
26.02.2014 19:06 6,2 C 3,3 C 84 % 1018,2 hPa 0,0 l/m 0 min 0 min 0,0 UV-I 0 W/m 0,0 km/h (0 Bft)
26.02.2014 19:08 6,1 C 3,3 C 84 % 1018,3 hPa 0,0 l/m 0 min 0 min 0,0 UV-I 0 W/m 0,0 km/h (0 Bft)
26.02.2014 19:10 6,0 C 3,3 C 84 % 1018,3 hPa 0,0 l/m 0 min 0 min 0,0 UV-I 0 W/m 0,0 km/h (0 Bft)
26.02.2014 19:12 5,9 C 3,3 C 84 % 1018,3 hPa 0,0 l/m 0 min 0 min 0,0 UV-I 0 W/m 0,0 km/h (0 Bft)
26.02.2014 19:14 5,9 C 3,3 C 85 % 1018,3 hPa 0,0 l/m 0 min 0 min 0,0 UV-I 0 W/m 0,0 km/h (0 Bft)
26.02.2014 19:16 5,9 C 3,3 C 85 % 1018,4 hPa 0,0 l/m 0 min 0 min 0,0 UV-I 0 W/m 0,0 km/h (0 Bft)
26.02.2014 19:18 5,8 C 3,3 C 85 % 1018,4 hPa 0,0 l/m 0 min 0 min 0,0 UV-I 0 W/m 0,0 km/h (0 Bft)
26.02.2014 19:20 5,8 C 3,3 C 86 % 1018,4 hPa 0,0 l/m 0 min 0 min 0,0 UV-I 0 W/m 0,0 km/h (0 Bft)
26.02.2014 19:22 5,7 C 3,3 C 86 % 1018,4 hPa 0,0 l/m 0 min 0 min 0,0 UV-I 0 W/m 0,0 km/h (0 Bft)
26.02.2014 19:24 5,7 C 3,3 C 86 % 1018,4 hPa 0,0 l/m 0 min 0 min 0,0 UV-I 0 W/m 0,0 km/h (0 Bft)
26.02.2014 19:26 5,6 C 3,3 C 86 % 1018,4 hPa 0,0 l/m 0 min 0 min 0,0 UV-I 0 W/m 0,0 km/h (0 Bft)
26.02.2014 19:28 5,6 C 3,3 C 86 % 1018,4 hPa 0,0 l/m 0 min 0 min 0,0 UV-I 0 W/m 0,0 km/h (0 Bft)
26.02.2014 19:30 5,6 C 3,3 C 86 % 1018,5 hPa 0,0 l/m 0 min 0 min 0,0 UV-I 0 W/m 0,0 km/h (0 Bft)
26.02.2014 19:32 5,6 C 2,8 C 86 % 1018,4 hPa 0,0 l/m 0 min 0 min 0,0 UV-I 0 W/m 0,0 km/h (0 Bft)
26.02.2014 19:34 5,5 C 2,8 C 86 % 1018,4 hPa 0,0 l/m 0 min 0 min 0,0 UV-I 0 W/m 0,0 km/h (0 Bft)
26.02.2014 19:36 5,4 C 2,8 C 86 % 1018,5 hPa 0,0 l/m 0 min 0 min 0,0 UV-I 0 W/m 0,0 km/h (0 Bft)
26.02.2014 19:38 5,3 C 2,8 C 86 % 1018,5 hPa 0,0 l/m 0 min 0 min 0,0 UV-I 0 W/m 0,0 km/h (0 Bft)
26.02.2014 19:40 5,3 C 2,8 C 86 % 1018,6 hPa 0,0 l/m 0 min 0 min 0,0 UV-I 0 W/m 0,0 km/h (0 Bft)
26.02.2014 19:42 5,3 C 2,8 C 87 % 1018,6 hPa 0,0 l/m 0 min 0 min 0,0 UV-I 0 W/m 0,0 km/h (0 Bft)
26.02.2014 19:44 5,2 C 2,8 C 87 % 1018,6 hPa 0,0 l/m 0 min 0 min 0,0 UV-I 0 W/m 0,0 km/h (0 Bft)
26.02.2014 19:46 5,2 C 2,8 C 87 % 1018,6 hPa 0,0 l/m 0 min 0 min 0,0 UV-I 0 W/m 0,0 km/h (0 Bft)
26.02.2014 19:48 5,2 C 2,8 C 87 % 1018,7 hPa 0,0 l/m 0 min 0 min 0,0 UV-I 0 W/m 0,0 km/h (0 Bft)
26.02.2014 19:50 5,2 C 2,8 C 88 % 1018,7 hPa 0,0 l/m 0 min 0 min 0,0 UV-I 0 W/m 0,0 km/h (0 Bft)
26.02.2014 19:52 5,1 C 2,8 C 88 % 1018,7 hPa 0,0 l/m 0 min 0 min 0,0 UV-I 0 W/m 0,0 km/h (0 Bft)
26.02.2014 19:54 5,1 C 2,8 C 88 % 1018,6 hPa 0,0 l/m 0 min 0 min 0,0 UV-I 0 W/m 0,0 km/h (0 Bft)
26.02.2014 19:56 5,1 C 2,8 C 88 % 1018,7 hPa 0,0 l/m 0 min 0 min 0,0 UV-I 0 W/m 0,0 km/h (0 Bft)
26.02.2014 19:58 5,1 C 2,8 C 88 % 1018,7 hPa 0,0 l/m 0 min 0 min 0,0 UV-I 0 W/m 0,0 km/h (0 Bft)
26.02.2014 20:00 5,1 C 2,8 C 88 % 1018,7 hPa 0,0 l/m 0 min 0 min 0,0 UV-I 0 W/m 0,0 km/h (0 Bft)
26.02.2014 20:02 5,0 C 2,8 C 88 % 1018,7 hPa 0,0 l/m 0 min 0 min 0,0 UV-I 0 W/m 0,0 km/h (0 Bft)
26.02.2014 20:04 4,9 C 2,8 C 88 % 1018,7 hPa 0,0 l/m 0 min 0 min 0,0 UV-I 0 W/m 0,0 km/h (0 Bft)
26.02.2014 20:06 4,9 C 2,8 C 88 % 1018,6 hPa 0,0 l/m 0 min 0 min 0,0 UV-I 0 W/m 0,0 km/h (0 Bft)
26.02.2014 20:08 4,9 C 2,8 C 88 % 1018,7 hPa 0,0 l/m 0 min 0 min 0,0 UV-I 0 W/m 0,0 km/h (0 Bft)
26.02.2014 20:10 4,9 C 2,2 C 88 % 1018,6 hPa 0,0 l/m 0 min 0 min 0,0 UV-I 0 W/m 0,0 km/h (0 Bft)
26.02.2014 20:12 4,9 C 2,2 C 88 % 1018,6 hPa 0,0 l/m 0 min 0 min 0,0 UV-I 0 W/m 0,0 km/h (0 Bft)
26.02.2014 20:14 4,9 C 2,2 C 88 % 1018,7 hPa 0,0 l/m 0 min 0 min 0,0 UV-I 0 W/m 0,0 km/h (0 Bft)
26.02.2014 20:16 4,8 C 2,2 C 88 % 1018,7 hPa 0,0 l/m 0 min 0 min 0,0 UV-I 0 W/m 0,0 km/h (0 Bft)
26.02.2014 20:18 4,8 C 2,2 C 88 % 1018,7 hPa 0,0 l/m 0 min 0 min 0,0 UV-I 0 W/m 0,0 km/h (0 Bft)
26.02.2014 20:20 4,7 C 2,2 C 88 % 1018,8 hPa 0,0 l/m 0 min 0 min 0,0 UV-I 0 W/m 0,0 km/h (0 Bft)
26.02.2014 20:22 4,7 C 2,2 C 89 % 1018,8 hPa 0,0 l/m 0 min 0 min 0,0 UV-I 0 W/m 0,0 km/h (0 Bft)
26.02.2014 20:24 4,7 C 2,2 C 89 % 1018,8 hPa 0,0 l/m 0 min 0 min 0,0 UV-I 0 W/m 0,0 km/h (0 Bft)
26.02.2014 20:26 4,7 C 2,2 C 89 % 1018,8 hPa 0,0 l/m 0 min 0 min 0,0 UV-I 0 W/m 0,0 km/h (0 Bft)
26.02.2014 20:28 4,7 C 2,2 C 90 % 1018,8 hPa 0,0 l/m 0 min 0 min 0,0 UV-I 0 W/m 0,0 km/h (0 Bft)
26.02.2014 20:30 4,6 C 2,2 C 90 % 1018,8 hPa 0,0 l/m 0 min 0 min 0,0 UV-I 0 W/m 0,0 km/h (0 Bft)
26.02.2014 20:32 4,6 C 2,2 C 90 % 1018,8 hPa 0,0 l/m 0 min 0 min 0,0 UV-I 0 W/m 0,0 km/h (0 Bft)
26.02.2014 20:34 4,7 C 2,2 C 91 % 1018,8 hPa 0,0 l/m 0 min 0 min 0,0 UV-I 0 W/m 0,0 km/h (0 Bft)
26.02.2014 20:36 4,6 C 2,2 C 91 % 1018,8 hPa 0,0 l/m 0 min 0 min 0,0 UV-I 0 W/m 0,0 km/h (0 Bft)
26.02.2014 20:38 4,6 C 2,2 C 91 % 1018,9 hPa 0,0 l/m 0 min 0 min 0,0 UV-I 0 W/m 0,0 km/h (0 Bft)
26.02.2014 20:40 4,5 C 2,2 C 91 % 1018,9 hPa 0,0 l/m 0 min 0 min 0,0 UV-I 0 W/m 0,0 km/h (0 Bft)
26.02.2014 20:42 4,5 C 2,2 C 91 % 1018,9 hPa 0,0 l/m 0 min 0 min 0,0 UV-I 0 W/m 0,0 km/h (0 Bft)
26.02.2014 20:44 4,4 C 2,2 C 91 % 1018,9 hPa 0,0 l/m 0 min 0 min 0,0 UV-I 0 W/m 0,0 km/h (0 Bft)
26.02.2014 20:46 4,4 C 2,2 C 91 % 1018,9 hPa 0,0 l/m 0 min 0 min 0,0 UV-I 0 W/m 0,0 km/h (0 Bft)
26.02.2014 20:48 4,3 C 2,2 C 91 % 1018,9 hPa 0,0 l/m 0 min 0 min 0,0 UV-I 0 W/m 0,0 km/h (0 Bft)
26.02.2014 20:50 4,3 C 2,2 C 91 % 1018,9 hPa 0,0 l/m 0 min 0 min 0,0 UV-I 0 W/m 0,0 km/h (0 Bft)
26.02.2014 20:52 4,2 C 2,2 C 91 % 1018,9 hPa 0,0 l/m 0 min 0 min 0,0 UV-I 0 W/m 0,0 km/h (0 Bft)
26.02.2014 20:54 4,2 C 2,2 C 91 % 1018,9 hPa 0,0 l/m 0 min 0 min 0,0 UV-I 0 W/m 0,0 km/h (0 Bft)
26.02.2014 20:56 4,2 C 2,2 C 91 % 1018,9 hPa 0,0 l/m 0 min 0 min 0,0 UV-I 0 W/m 0,0 km/h (0 Bft)
26.02.2014 20:58 4,1 C 2,2 C 92 % 1019,0 hPa 0,0 l/m 0 min 0 min 0,0 UV-I 0 W/m 0,0 km/h (0 Bft)
26.02.2014 21:00 4,1 C 2,2 C 91 % 1019,0 hPa 0,0 l/m 0 min 0 min 0,0 UV-I 0 W/m 0,0 km/h (0 Bft)
26.02.2014 21:02 4,1 C 1,7 C 92 % 1019,0 hPa 0,0 l/m 0 min 0 min 0,0 UV-I 0 W/m 0,0 km/h (0 Bft)
26.02.2014 21:04 4,1 C 1,7 C 92 % 1019,0 hPa 0,0 l/m 0 min 0 min 0,0 UV-I 0 W/m 0,0 km/h (0 Bft)
26.02.2014 21:06 4,1 C 1,7 C 92 % 1019,0 hPa 0,0 l/m 0 min 0 min 0,0 UV-I 0 W/m 0,0 km/h (0 Bft)
26.02.2014 21:08 4,1 C 1,7 C 92 % 1019,0 hPa 0,0 l/m 0 min 0 min 0,0 UV-I 0 W/m 0,0 km/h (0 Bft)
26.02.2014 21:10 4,1 C 1,7 C 92 % 1019,1 hPa 0,0 l/m 0 min 0 min 0,0 UV-I 0 W/m 0,0 km/h (0 Bft)
26.02.2014 21:12 4,1 C 1,7 C 92 % 1019,1 hPa 0,0 l/m 0 min 0 min 0,0 UV-I 0 W/m 0,0 km/h (0 Bft)
26.02.2014 21:14 4,1 C 1,7 C 92 % 1019,1 hPa 0,0 l/m 0 min 0 min 0,0 UV-I 0 W/m 0,0 km/h (0 Bft)
26.02.2014 21:16 4,1 C 1,7 C 92 % 1019,1 hPa 0,0 l/m 0 min 0 min 0,0 UV-I 0 W/m 0,0 km/h (0 Bft)
26.02.2014 21:18 4,1 C 1,7 C 92 % 1019,1 hPa 0,0 l/m 0 min 0 min 0,0 UV-I 0 W/m 0,0 km/h (0 Bft)
26.02.2014 21:20 4,1 C 1,7 C 92 % 1019,1 hPa 0,0 l/m 0 min 0 min 0,0 UV-I 0 W/m 0,0 km/h (0 Bft)
26.02.2014 21:22 4,1 C 1,7 C 92 % 1019,1 hPa 0,0 l/m 0 min 0 min 0,0 UV-I 0 W/m 0,0 km/h (0 Bft)
26.02.2014 21:24 4,1 C 1,7 C 92 % 1019,2 hPa 0,0 l/m 0 min 0 min 0,0 UV-I 0 W/m 0,0 km/h (0 Bft)
26.02.2014 21:26 4,1 C 1,7 C 92 % 1019,1 hPa 0,0 l/m 0 min 0 min 0,0 UV-I 0 W/m 0,0 km/h (0 Bft)
26.02.2014 21:28 4,1 C 1,7 C 92 % 1019,1 hPa 0,0 l/m 0 min 0 min 0,0 UV-I 0 W/m 0,0 km/h (0 Bft)
26.02.2014 21:30 4,1 C 1,7 C 92 % 1019,1 hPa 0,0 l/m 0 min 0 min 0,0 UV-I 0 W/m 0,0 km/h (0 Bft)
26.02.2014 21:32 4,1 C 1,7 C 92 % 1019,2 hPa 0,0 l/m 0 min 0 min 0,0 UV-I 0 W/m 0,0 km/h (0 Bft)
26.02.2014 21:34 4,1 C 1,7 C 92 % 1019,2 hPa 0,0 l/m 0 min 0 min 0,0 UV-I 0 W/m 0,0 km/h (0 Bft)
26.02.2014 21:36 4,0 C 1,7 C 92 % 1019,2 hPa 0,0 l/m 0 min 0 min 0,0 UV-I 0 W/m 0,0 km/h (0 Bft)
26.02.2014 21:38 4,0 C 1,7 C 92 % 1019,1 hPa 0,0 l/m 0 min 0 min 0,0 UV-I 0 W/m 0,0 km/h (0 Bft)
26.02.2014 21:40 3,9 C 1,7 C 92 % 1019,1 hPa 0,0 l/m 0 min 0 min 0,0 UV-I 0 W/m 0,0 km/h (0 Bft)
26.02.2014 21:42 3,8 C 1,7 C 92 % 1019,3 hPa 0,0 l/m 0 min 0 min 0,0 UV-I 0 W/m 0,0 km/h (0 Bft)
26.02.2014 21:44 3,8 C 1,7 C 92 % 1019,2 hPa 0,0 l/m 0 min 0 min 0,0 UV-I 0 W/m 0,0 km/h (0 Bft)
26.02.2014 21:46 3,7 C 1,7 C 92 % 1019,2 hPa 0,0 l/m 0 min 0 min 0,0 UV-I 0 W/m 0,0 km/h (0 Bft)
26.02.2014 21:48 3,7 C 1,7 C 92 % 1019,2 hPa 0,0 l/m 0 min 0 min 0,0 UV-I 0 W/m 0,0 km/h (0 Bft)
26.02.2014 21:50 3,6 C 1,7 C 92 % 1019,2 hPa 0,0 l/m 0 min 0 min 0,0 UV-I 0 W/m 0,0 km/h (0 Bft)
26.02.2014 21:52 3,6 C 1,7 C 92 % 1019,2 hPa 0,0 l/m 0 min 0 min 0,0 UV-I 0 W/m 0,0 km/h (0 Bft)
26.02.2014 21:54 3,5 C 1,7 C 93 % 1019,2 hPa 0,0 l/m 0 min 0 min 0,0 UV-I 0 W/m 0,0 km/h (0 Bft)
26.02.2014 21:56 3,4 C 1,7 C 93 % 1019,2 hPa 0,0 l/m 0 min 0 min 0,0 UV-I 0 W/m 0,0 km/h (0 Bft)
26.02.2014 21:58 3,4 C 1,7 C 93 % 1019,2 hPa 0,0 l/m 0 min 0 min 0,0 UV-I 0 W/m 0,0 km/h (0 Bft)
26.02.2014 22:00 3,4 C 1,7 C 93 % 1019,3 hPa 0,0 l/m 0 min 0 min 0,0 UV-I 0 W/m 0,0 km/h (0 Bft)
26.02.2014 22:02 3,4 C 1,7 C 93 % 1019,3 hPa 0,0 l/m 0 min 0 min 0,0 UV-I 0 W/m 0,0 km/h (0 Bft)
26.02.2014 22:04 3,4 C 1,7 C 93 % 1019,3 hPa 0,0 l/m 0 min 0 min 0,0 UV-I 0 W/m 0,0 km/h (0 Bft)
26.02.2014 22:06 3,4 C 1,7 C 93 % 1019,4 hPa 0,0 l/m 0 min 0 min 0,0 UV-I 0 W/m 0,0 km/h (0 Bft)
26.02.2014 22:08 3,4 C 1,1 C 93 % 1019,3 hPa 0,0 l/m 0 min 0 min 0,0 UV-I 0 W/m 0,0 km/h (0 Bft)
26.02.2014 22:10 3,4 C 1,1 C 93 % 1019,3 hPa 0,0 l/m 0 min 0 min 0,0 UV-I 0 W/m 0,0 km/h (0 Bft)
26.02.2014 22:12 3,4 C 1,1 C 93 % 1019,3 hPa 0,0 l/m 0 min 0 min 0,0 UV-I 0 W/m 0,0 km/h (0 Bft)
26.02.2014 22:14 3,4 C 1,1 C 94 % 1019,4 hPa 0,0 l/m 0 min 0 min 0,0 UV-I 0 W/m 0,0 km/h (0 Bft)
26.02.2014 22:16 3,3 C 1,1 C 93 % 1019,3 hPa 0,0 l/m 0 min 0 min 0,0 UV-I 0 W/m 0,0 km/h (0 Bft)
26.02.2014 22:18 3,3 C 1,1 C 94 % 1019,3 hPa 0,0 l/m 0 min 0 min 0,0 UV-I 0 W/m 0,0 km/h (0 Bft)
26.02.2014 22:20 3,2 C 1,1 C 94 % 1019,3 hPa 0,0 l/m 0 min 0 min 0,0 UV-I 0 W/m 0,0 km/h (0 Bft)
26.02.2014 22:22 3,2 C 1,1 C 93 % 1019,3 hPa 0,0 l/m 0 min 0 min 0,0 UV-I 0 W/m 0,0 km/h (0 Bft)
26.02.2014 22:24 3,1 C 1,1 C 93 % 1019,3 hPa 0,0 l/m 0 min 0 min 0,0 UV-I 0 W/m 0,0 km/h (0 Bft)
26.02.2014 22:26 3,1 C 1,1 C 93 % 1019,3 hPa 0,0 l/m 0 min 0 min 0,0 UV-I 0 W/m 0,0 km/h (0 Bft)
26.02.2014 22:28 3,2 C 1,1 C 94 % 1019,3 hPa 0,0 l/m 0 min 0 min 0,0 UV-I 0 W/m 0,0 km/h (0 Bft)
26.02.2014 22:30 3,2 C 1,1 C 94 % 1019,3 hPa 0,0 l/m 0 min 0 min 0,0 UV-I 0 W/m 0,0 km/h (0 Bft)
26.02.2014 22:32 3,3 C 1,1 C 94 % 1019,3 hPa 0,0 l/m 0 min 0 min 0,0 UV-I 0 W/m 0,0 km/h (0 Bft)
26.02.2014 22:34 3,4 C 1,1 C 94 % 1019,4 hPa 0,0 l/m 0 min 0 min 0,0 UV-I 0 W/m 0,0 km/h (0 Bft)
26.02.2014 22:36 3,4 C 1,1 C 94 % 1019,3 hPa 0,0 l/m 0 min 0 min 0,0 UV-I 0 W/m 0,0 km/h (0 Bft)
26.02.2014 22:38 3,5 C 1,1 C 94 % 1019,3 hPa 0,0 l/m 0 min 0 min 0,0 UV-I 0 W/m 0,0 km/h (0 Bft)
26.02.2014 22:40 3,6 C 1,1 C 94 % 1019,3 hPa 0,0 l/m 0 min 0 min 0,0 UV-I 0 W/m 0,0 km/h (0 Bft)
26.02.2014 22:42 3,7 C 1,1 C 94 % 1019,2 hPa 0,0 l/m 0 min 0 min 0,0 UV-I 0 W/m 0,0 km/h (0 Bft)
26.02.2014 22:44 3,8 C 1,1 C 94 % 1019,2 hPa 0,0 l/m 0 min 0 min 0,0 UV-I 0 W/m 0,0 km/h (0 Bft)
26.02.2014 22:46 3,9 C 1,1 C 94 % 1019,3 hPa 0,0 l/m 0 min 0 min 0,0 UV-I 0 W/m 0,0 km/h (0 Bft)
26.02.2014 22:48 4,1 C 1,1 C 94 % 1019,2 hPa 0,0 l/m 0 min 0 min 0,0 UV-I 0 W/m 0,0 km/h (0 Bft)
26.02.2014 22:50 4,2 C 1,7 C 94 % 1019,2 hPa 0,0 l/m 0 min 0 min 0,0 UV-I 0 W/m 0,0 km/h (0 Bft)
26.02.2014 22:52 4,4 C 1,7 C 94 % 1019,2 hPa 0,0 l/m 0 min 0 min 0,0 UV-I 0 W/m 0,0 km/h (0 Bft)
26.02.2014 22:54 4,4 C 1,7 C 93 % 1019,2 hPa 0,0 l/m 0 min 0 min 0,0 UV-I 0 W/m 0,0 km/h (0 Bft)
26.02.2014 22:56 4,6 C 1,7 C 93 % 1019,3 hPa 0,0 l/m 0 min 0 min 0,0 UV-I 0 W/m 2,6 km/h (1 Bft)
26.02.2014 22:58 4,6 C 2,2 C 92 % 1019,3 hPa 0,0 l/m 0 min 0 min 0,0 UV-I 0 W/m 0,0 km/h (0 Bft)
26.02.2014 23:00 4,7 C 2,2 C 92 % 1019,2 hPa 0,0 l/m 0 min 0 min 0,0 UV-I 0 W/m 0,0 km/h (0 Bft)
26.02.2014 23:02 4,7 C 2,2 C 91 % 1019,2 hPa 0,0 l/m 0 min 0 min 0,0 UV-I 0 W/m 0,0 km/h (0 Bft)
26.02.2014 23:04 4,7 C 2,2 C 91 % 1019,2 hPa 0,0 l/m 0 min 0 min 0,0 UV-I 0 W/m 0,0 km/h (0 Bft)
26.02.2014 23:06 4,7 C 2,2 C 91 % 1019,3 hPa 0,0 l/m 0 min 0 min 0,0 UV-I 0 W/m 0,0 km/h (0 Bft)
26.02.2014 23:08 4,8 C 2,2 C 90 % 1019,3 hPa 0,0 l/m 0 min 0 min 0,0 UV-I 0 W/m 0,0 km/h (0 Bft)
26.02.2014 23:10 4,7 C 2,2 C 90 % 1019,3 hPa 0,0 l/m 0 min 0 min 0,0 UV-I 0 W/m 0,0 km/h (0 Bft)
26.02.2014 23:12 4,7 C 2,2 C 90 % 1019,3 hPa 0,0 l/m 0 min 0 min 0,0 UV-I 0 W/m 0,0 km/h (0 Bft)
26.02.2014 23:14 4,6 C 2,2 C 89 % 1019,3 hPa 0,0 l/m 0 min 0 min 0,0 UV-I 0 W/m 0,0 km/h (0 Bft)
26.02.2014 23:16 4,6 C 2,2 C 89 % 1019,3 hPa 0,0 l/m 0 min 0 min 0,0 UV-I 0 W/m 0,0 km/h (0 Bft)
26.02.2014 23:18 4,5 C 2,2 C 89 % 1019,3 hPa 0,0 l/m 0 min 0 min 0,0 UV-I 0 W/m 0,0 km/h (0 Bft)
26.02.2014 23:20 4,4 C 2,2 C 89 % 1019,3 hPa 0,0 l/m 0 min 0 min 0,0 UV-I 0 W/m 0,0 km/h (0 Bft)
26.02.2014 23:22 4,4 C 1,7 C 90 % 1019,3 hPa 0,0 l/m 0 min 0 min 0,0 UV-I 0 W/m 0,0 km/h (0 Bft)
26.02.2014 23:24 4,4 C 1,7 C 90 % 1019,3 hPa 0,0 l/m 0 min 0 min 0,0 UV-I 0 W/m 0,0 km/h (0 Bft)
26.02.2014 23:26 4,3 C 1,7 C 90 % 1019,3 hPa 0,0 l/m 0 min 0 min 0,0 UV-I 0 W/m 0,0 km/h (0 Bft)
26.02.2014 23:28 4,2 C 1,7 C 90 % 1019,3 hPa 0,0 l/m 0 min 0 min 0,0 UV-I 0 W/m 0,0 km/h (0 Bft)
26.02.2014 23:30 4,2 C 1,7 C 90 % 1019,3 hPa 0,0 l/m 0 min 0 min 0,0 UV-I 0 W/m 0,0 km/h (0 Bft)
26.02.2014 23:32 4,2 C 1,7 C 90 % 1019,3 hPa 0,0 l/m 0 min 0 min 0,0 UV-I 0 W/m 0,0 km/h (0 Bft)
26.02.2014 23:34 4,2 C 1,7 C 90 % 1019,3 hPa 0,0 l/m 0 min 0 min 0,0 UV-I 0 W/m 0,0 km/h (0 Bft)
26.02.2014 23:36 4,2 C 1,7 C 90 % 1019,2 hPa 0,0 l/m 0 min 0 min 0,0 UV-I 0 W/m 0,0 km/h (0 Bft)
26.02.2014 23:38 4,2 C 1,7 C 91 % 1019,3 hPa 0,0 l/m 0 min 0 min 0,0 UV-I 0 W/m 0,0 km/h (0 Bft)
26.02.2014 23:40 4,2 C 1,7 C 91 % 1019,3 hPa 0,0 l/m 0 min 0 min 0,0 UV-I 0 W/m 0,0 km/h (0 Bft)
26.02.2014 23:42 4,2 C 1,7 C 91 % 1019,3 hPa 0,0 l/m 0 min 0 min 0,0 UV-I 0 W/m 0,0 km/h (0 Bft)
26.02.2014 23:44 4,3 C 1,7 C 91 % 1019,2 hPa 0,0 l/m 0 min 0 min 0,0 UV-I 0 W/m 0,0 km/h (0 Bft)
26.02.2014 23:46 4,3 C 1,7 C 91 % 1019,3 hPa 0,0 l/m 0 min 0 min 0,0 UV-I 0 W/m 0,0 km/h (0 Bft)
26.02.2014 23:48 4,3 C 1,7 C 91 % 1019,2 hPa 0,0 l/m 0 min 0 min 0,0 UV-I 0 W/m 0,0 km/h (0 Bft)
26.02.2014 23:50 4,3 C 1,7 C 91 % 1019,3 hPa 0,0 l/m 0 min 0 min 0,0 UV-I 0 W/m 0,0 km/h (0 Bft)
26.02.2014 23:52 4,3 C 1,7 C 91 % 1019,2 hPa 0,0 l/m 0 min 0 min 0,0 UV-I 0 W/m 0,0 km/h (0 Bft)
26.02.2014 23:54 4,4 C 1,7 C 90 % 1019,3 hPa 0,0 l/m 0 min 0 min 0,0 UV-I 0 W/m 0,0 km/h (0 Bft)
26.02.2014 23:56 4,4 C 1,7 C 90 % 1019,3 hPa 0,0 l/m 0 min 0 min 0,0 UV-I 0 W/m 0,0 km/h (0 Bft)
26.02.2014 23:58 4,3 C 1,7 C 90 % 1019,3 hPa 0,0 l/m 0 min 0 min 0,0 UV-I 0 W/m 0,0 km/h (0 Bft)
_ Min-Zeit 22:24 22:08 15:54 00:06 - - - - - 00:08
Minimum _ 3,1 C 1,1 C 66 % 1009,8 hPa - - - - - 0,0 km/h (0 Bft)
_ Max-Zeit 15:26 14:22 05:08 22:06 03:06 08:32 00:00 13:10 13:12 14:18
Maximum _ 11,9 C 10,6 C 97 % 1019,4 hPa 0,2 l/m 2 min 2 min 0,7 UV-I 503 W/m 20,6 km/h
SW (4 Bft)
Durchschnitt _ 7,7 C 5,9 C 87 % 1015,0 hPa #2,2 l/m #3:34 h #2:58 h 0,5 UV-I 173 W/m 3,0 km/h (1 Bft)
© 2014 W. Hausmann